<?xml version="1.0" encoding="UTF-8" standalone="no" ?>
<gpx xmlns="http://www.topografix.com/GPX/1/1" xmlns:xsi="http://www.w3.org/2001/XMLSchema-instance" xsi:schemaLocation="http://www.topografix.com/GPX/1/1 http://www.topografix.com/GPX/1/1/gpx.xsd" version="1.1" creator="VisuGPX - https://www.visugpx.com">
  <metadata>
    <name>Ronno - Meaux la Montagne</name>
    <desc><![CDATA[Un joli parcours sur les crêtes]]></desc>
  </metadata>
  <trk>
    <name><![CDATA[Ronno direction Meaux]]></name>
    <desc><![CDATA[Crêtes]]></desc>
    <trkseg>
      <trkpt lat="45.98438" lon="4.39176">
        <ele>589</ele>
        <time>2014-03-18T16:32:01Z</time>
      </trkpt>
      <trkpt lat="45.98438" lon="4.39176">
        <ele>589</ele>
        <time>2014-03-18T16:32:16Z</time>
      </trkpt>
      <trkpt lat="45.98456" lon="4.3911">
        <ele>582</ele>
        <time>2014-03-18T16:32:34Z</time>
      </trkpt>
      <trkpt lat="45.98444" lon="4.39162">
        <ele>588</ele>
        <time>2014-03-18T16:32:51Z</time>
      </trkpt>
      <trkpt lat="45.98442" lon="4.39168">
        <ele>588</ele>
        <time>2014-03-18T16:32:56Z</time>
      </trkpt>
      <trkpt lat="45.98442" lon="4.39168">
        <ele>588</ele>
        <time>2014-03-18T16:33:16Z</time>
      </trkpt>
      <trkpt lat="45.98442" lon="4.39168">
        <ele>588</ele>
        <time>2014-03-18T16:33:31Z</time>
      </trkpt>
      <trkpt lat="45.98431" lon="4.39183">
        <ele>589</ele>
        <time>2014-03-18T16:33:56Z</time>
      </trkpt>
      <trkpt lat="45.98432" lon="4.39179">
        <ele>589</ele>
        <time>2014-03-18T16:34:16Z</time>
      </trkpt>
      <trkpt lat="45.9845" lon="4.3915">
        <ele>587</ele>
        <time>2014-03-18T16:34:25Z</time>
      </trkpt>
      <trkpt lat="45.98457" lon="4.39148">
        <ele>587</ele>
        <time>2014-03-18T16:34:30Z</time>
      </trkpt>
      <trkpt lat="45.98466" lon="4.39154">
        <ele>588</ele>
        <time>2014-03-18T16:34:36Z</time>
      </trkpt>
      <trkpt lat="45.98463" lon="4.39159">
        <ele>588</ele>
        <time>2014-03-18T16:34:48Z</time>
      </trkpt>
      <trkpt lat="45.98462" lon="4.3916">
        <ele>588</ele>
        <time>2014-03-18T16:35:16Z</time>
      </trkpt>
      <trkpt lat="45.98462" lon="4.3916">
        <ele>588</ele>
        <time>2014-03-18T16:35:31Z</time>
      </trkpt>
      <trkpt lat="45.98462" lon="4.3916">
        <ele>588</ele>
        <time>2014-03-18T16:35:46Z</time>
      </trkpt>
      <trkpt lat="45.98438" lon="4.39174">
        <ele>589</ele>
        <time>2014-04-01T12:28:02Z</time>
      </trkpt>
      <trkpt lat="45.98447" lon="4.39194">
        <ele>591</ele>
        <time>2014-04-01T12:28:27Z</time>
      </trkpt>
      <trkpt lat="45.98442" lon="4.39192">
        <ele>591</ele>
        <time>2014-04-01T12:28:33Z</time>
      </trkpt>
      <trkpt lat="45.98432" lon="4.39183">
        <ele>590</ele>
        <time>2014-04-01T12:28:38Z</time>
      </trkpt>
      <trkpt lat="45.9844" lon="4.39183">
        <ele>590</ele>
        <time>2014-04-01T12:28:43Z</time>
      </trkpt>
      <trkpt lat="45.98454" lon="4.39183">
        <ele>590</ele>
        <time>2014-04-01T12:28:48Z</time>
      </trkpt>
      <trkpt lat="45.98465" lon="4.39185">
        <ele>591</ele>
        <time>2014-04-01T12:28:53Z</time>
      </trkpt>
      <trkpt lat="45.98465" lon="4.39185">
        <ele>591</ele>
        <time>2014-04-01T12:29:16Z</time>
      </trkpt>
      <trkpt lat="45.98457" lon="4.39181">
        <ele>590</ele>
        <time>2014-04-01T12:29:30Z</time>
      </trkpt>
      <trkpt lat="45.98454" lon="4.39188">
        <ele>591</ele>
        <time>2014-04-01T12:29:39Z</time>
      </trkpt>
      <trkpt lat="45.98447" lon="4.39201">
        <ele>592</ele>
        <time>2014-04-01T12:29:44Z</time>
      </trkpt>
      <trkpt lat="45.98444" lon="4.3922">
        <ele>594</ele>
        <time>2014-04-01T12:29:49Z</time>
      </trkpt>
      <trkpt lat="45.98449" lon="4.39235">
        <ele>596</ele>
        <time>2014-04-01T12:29:54Z</time>
      </trkpt>
      <trkpt lat="45.98453" lon="4.39249">
        <ele>597</ele>
        <time>2014-04-01T12:29:59Z</time>
      </trkpt>
      <trkpt lat="45.9846" lon="4.39259">
        <ele>598</ele>
        <time>2014-04-01T12:30:04Z</time>
      </trkpt>
      <trkpt lat="45.98469" lon="4.3926">
        <ele>599</ele>
        <time>2014-04-01T12:30:09Z</time>
      </trkpt>
      <trkpt lat="45.98477" lon="4.39251">
        <ele>599</ele>
        <time>2014-04-01T12:30:14Z</time>
      </trkpt>
      <trkpt lat="45.98483" lon="4.3924">
        <ele>599</ele>
        <time>2014-04-01T12:30:19Z</time>
      </trkpt>
      <trkpt lat="45.98488" lon="4.39228">
        <ele>598</ele>
        <time>2014-04-01T12:30:24Z</time>
      </trkpt>
      <trkpt lat="45.98496" lon="4.39219">
        <ele>598</ele>
        <time>2014-04-01T12:30:29Z</time>
      </trkpt>
      <trkpt lat="45.98503" lon="4.39213">
        <ele>598</ele>
        <time>2014-04-01T12:30:34Z</time>
      </trkpt>
      <trkpt lat="45.9851" lon="4.39214">
        <ele>599</ele>
        <time>2014-04-01T12:30:39Z</time>
      </trkpt>
      <trkpt lat="45.98515" lon="4.3922">
        <ele>600</ele>
        <time>2014-04-01T12:30:44Z</time>
      </trkpt>
      <trkpt lat="45.9852" lon="4.39229">
        <ele>601</ele>
        <time>2014-04-01T12:30:49Z</time>
      </trkpt>
      <trkpt lat="45.98525" lon="4.39236">
        <ele>603</ele>
        <time>2014-04-01T12:30:54Z</time>
      </trkpt>
      <trkpt lat="45.9853" lon="4.39245">
        <ele>604</ele>
        <time>2014-04-01T12:31:00Z</time>
      </trkpt>
      <trkpt lat="45.98535" lon="4.39253">
        <ele>605</ele>
        <time>2014-04-01T12:31:05Z</time>
      </trkpt>
      <trkpt lat="45.9854" lon="4.3926">
        <ele>606</ele>
        <time>2014-04-01T12:31:10Z</time>
      </trkpt>
      <trkpt lat="45.98545" lon="4.39267">
        <ele>608</ele>
        <time>2014-04-01T12:31:15Z</time>
      </trkpt>
      <trkpt lat="45.98551" lon="4.39276">
        <ele>609</ele>
        <time>2014-04-01T12:31:20Z</time>
      </trkpt>
      <trkpt lat="45.98556" lon="4.39283">
        <ele>610</ele>
        <time>2014-04-01T12:31:25Z</time>
      </trkpt>
      <trkpt lat="45.98562" lon="4.39289">
        <ele>611</ele>
        <time>2014-04-01T12:31:30Z</time>
      </trkpt>
      <trkpt lat="45.98568" lon="4.39296">
        <ele>612</ele>
        <time>2014-04-01T12:31:35Z</time>
      </trkpt>
      <trkpt lat="45.98574" lon="4.39305">
        <ele>613</ele>
        <time>2014-04-01T12:31:40Z</time>
      </trkpt>
      <trkpt lat="45.98579" lon="4.3931">
        <ele>614</ele>
        <time>2014-04-01T12:31:45Z</time>
      </trkpt>
      <trkpt lat="45.98582" lon="4.39317">
        <ele>614</ele>
        <time>2014-04-01T12:31:50Z</time>
      </trkpt>
      <trkpt lat="45.98585" lon="4.39323">
        <ele>615</ele>
        <time>2014-04-01T12:31:57Z</time>
      </trkpt>
      <trkpt lat="45.98589" lon="4.39329">
        <ele>616</ele>
        <time>2014-04-01T12:32:02Z</time>
      </trkpt>
      <trkpt lat="45.98594" lon="4.39335">
        <ele>616</ele>
        <time>2014-04-01T12:32:07Z</time>
      </trkpt>
      <trkpt lat="45.98599" lon="4.3934">
        <ele>617</ele>
        <time>2014-04-01T12:32:12Z</time>
      </trkpt>
      <trkpt lat="45.98603" lon="4.39344">
        <ele>618</ele>
        <time>2014-04-01T12:32:17Z</time>
      </trkpt>
      <trkpt lat="45.9861" lon="4.39351">
        <ele>618</ele>
        <time>2014-04-01T12:32:22Z</time>
      </trkpt>
      <trkpt lat="45.98617" lon="4.39359">
        <ele>618</ele>
        <time>2014-04-01T12:32:27Z</time>
      </trkpt>
      <trkpt lat="45.98624" lon="4.39367">
        <ele>619</ele>
        <time>2014-04-01T12:32:32Z</time>
      </trkpt>
      <trkpt lat="45.98631" lon="4.39375">
        <ele>619</ele>
        <time>2014-04-01T12:32:37Z</time>
      </trkpt>
      <trkpt lat="45.98636" lon="4.39385">
        <ele>620</ele>
        <time>2014-04-01T12:32:42Z</time>
      </trkpt>
      <trkpt lat="45.9864" lon="4.39396">
        <ele>621</ele>
        <time>2014-04-01T12:32:47Z</time>
      </trkpt>
      <trkpt lat="45.98641" lon="4.39408">
        <ele>622</ele>
        <time>2014-04-01T12:32:52Z</time>
      </trkpt>
      <trkpt lat="45.98642" lon="4.39419">
        <ele>624</ele>
        <time>2014-04-01T12:32:57Z</time>
      </trkpt>
      <trkpt lat="45.98641" lon="4.39429">
        <ele>625</ele>
        <time>2014-04-01T12:33:02Z</time>
      </trkpt>
      <trkpt lat="45.98642" lon="4.39439">
        <ele>626</ele>
        <time>2014-04-01T12:33:07Z</time>
      </trkpt>
      <trkpt lat="45.98643" lon="4.39448">
        <ele>627</ele>
        <time>2014-04-01T12:33:12Z</time>
      </trkpt>
      <trkpt lat="45.98646" lon="4.39457">
        <ele>628</ele>
        <time>2014-04-01T12:33:17Z</time>
      </trkpt>
      <trkpt lat="45.9865" lon="4.39464">
        <ele>629</ele>
        <time>2014-04-01T12:33:22Z</time>
      </trkpt>
      <trkpt lat="45.98654" lon="4.3947">
        <ele>630</ele>
        <time>2014-04-01T12:33:27Z</time>
      </trkpt>
      <trkpt lat="45.98658" lon="4.39476">
        <ele>631</ele>
        <time>2014-04-01T12:33:32Z</time>
      </trkpt>
      <trkpt lat="45.98663" lon="4.39482">
        <ele>632</ele>
        <time>2014-04-01T12:33:37Z</time>
      </trkpt>
      <trkpt lat="45.98666" lon="4.39488">
        <ele>633</ele>
        <time>2014-04-01T12:33:42Z</time>
      </trkpt>
      <trkpt lat="45.98672" lon="4.39493">
        <ele>633</ele>
        <time>2014-04-01T12:33:47Z</time>
      </trkpt>
      <trkpt lat="45.98676" lon="4.395">
        <ele>634</ele>
        <time>2014-04-01T12:33:52Z</time>
      </trkpt>
      <trkpt lat="45.98679" lon="4.39508">
        <ele>635</ele>
        <time>2014-04-01T12:33:57Z</time>
      </trkpt>
      <trkpt lat="45.98683" lon="4.39514">
        <ele>636</ele>
        <time>2014-04-01T12:34:02Z</time>
      </trkpt>
      <trkpt lat="45.98687" lon="4.39522">
        <ele>637</ele>
        <time>2014-04-01T12:34:07Z</time>
      </trkpt>
      <trkpt lat="45.98691" lon="4.39531">
        <ele>638</ele>
        <time>2014-04-01T12:34:13Z</time>
      </trkpt>
      <trkpt lat="45.98694" lon="4.39539">
        <ele>640</ele>
        <time>2014-04-01T12:34:18Z</time>
      </trkpt>
      <trkpt lat="45.98697" lon="4.39546">
        <ele>641</ele>
        <time>2014-04-01T12:34:23Z</time>
      </trkpt>
      <trkpt lat="45.987" lon="4.39554">
        <ele>642</ele>
        <time>2014-04-01T12:34:28Z</time>
      </trkpt>
      <trkpt lat="45.98704" lon="4.39561">
        <ele>644</ele>
        <time>2014-04-01T12:34:33Z</time>
      </trkpt>
      <trkpt lat="45.98708" lon="4.39569">
        <ele>645</ele>
        <time>2014-04-01T12:34:38Z</time>
      </trkpt>
      <trkpt lat="45.98713" lon="4.39577">
        <ele>647</ele>
        <time>2014-04-01T12:34:43Z</time>
      </trkpt>
      <trkpt lat="45.98718" lon="4.39584">
        <ele>648</ele>
        <time>2014-04-01T12:34:48Z</time>
      </trkpt>
      <trkpt lat="45.98724" lon="4.39592">
        <ele>650</ele>
        <time>2014-04-01T12:34:53Z</time>
      </trkpt>
      <trkpt lat="45.98729" lon="4.396">
        <ele>651</ele>
        <time>2014-04-01T12:34:58Z</time>
      </trkpt>
      <trkpt lat="45.98735" lon="4.39607">
        <ele>652</ele>
        <time>2014-04-01T12:35:03Z</time>
      </trkpt>
      <trkpt lat="45.98742" lon="4.39614">
        <ele>653</ele>
        <time>2014-04-01T12:35:08Z</time>
      </trkpt>
      <trkpt lat="45.98748" lon="4.39621">
        <ele>654</ele>
        <time>2014-04-01T12:35:13Z</time>
      </trkpt>
      <trkpt lat="45.98755" lon="4.39626">
        <ele>654</ele>
        <time>2014-04-01T12:35:18Z</time>
      </trkpt>
      <trkpt lat="45.98762" lon="4.39633">
        <ele>655</ele>
        <time>2014-04-01T12:35:23Z</time>
      </trkpt>
      <trkpt lat="45.98769" lon="4.39639">
        <ele>655</ele>
        <time>2014-04-01T12:35:28Z</time>
      </trkpt>
      <trkpt lat="45.98775" lon="4.39645">
        <ele>656</ele>
        <time>2014-04-01T12:35:33Z</time>
      </trkpt>
      <trkpt lat="45.98781" lon="4.39651">
        <ele>656</ele>
        <time>2014-04-01T12:35:38Z</time>
      </trkpt>
      <trkpt lat="45.98787" lon="4.39658">
        <ele>657</ele>
        <time>2014-04-01T12:35:43Z</time>
      </trkpt>
      <trkpt lat="45.98792" lon="4.39663">
        <ele>657</ele>
        <time>2014-04-01T12:35:48Z</time>
      </trkpt>
      <trkpt lat="45.98798" lon="4.39668">
        <ele>658</ele>
        <time>2014-04-01T12:35:53Z</time>
      </trkpt>
      <trkpt lat="45.98803" lon="4.39672">
        <ele>658</ele>
        <time>2014-04-01T12:35:58Z</time>
      </trkpt>
      <trkpt lat="45.98808" lon="4.39677">
        <ele>658</ele>
        <time>2014-04-01T12:36:03Z</time>
      </trkpt>
      <trkpt lat="45.98814" lon="4.39681">
        <ele>659</ele>
        <time>2014-04-01T12:36:08Z</time>
      </trkpt>
      <trkpt lat="45.98819" lon="4.39686">
        <ele>659</ele>
        <time>2014-04-01T12:36:13Z</time>
      </trkpt>
      <trkpt lat="45.98825" lon="4.3969">
        <ele>659</ele>
        <time>2014-04-01T12:36:18Z</time>
      </trkpt>
      <trkpt lat="45.9883" lon="4.39697">
        <ele>660</ele>
        <time>2014-04-01T12:36:23Z</time>
      </trkpt>
      <trkpt lat="45.98835" lon="4.39705">
        <ele>661</ele>
        <time>2014-04-01T12:36:28Z</time>
      </trkpt>
      <trkpt lat="45.9884" lon="4.39712">
        <ele>662</ele>
        <time>2014-04-01T12:36:33Z</time>
      </trkpt>
      <trkpt lat="45.98845" lon="4.39719">
        <ele>662</ele>
        <time>2014-04-01T12:36:38Z</time>
      </trkpt>
      <trkpt lat="45.98849" lon="4.39727">
        <ele>663</ele>
        <time>2014-04-01T12:36:43Z</time>
      </trkpt>
      <trkpt lat="45.98852" lon="4.39734">
        <ele>664</ele>
        <time>2014-04-01T12:36:48Z</time>
      </trkpt>
      <trkpt lat="45.98856" lon="4.39742">
        <ele>666</ele>
        <time>2014-04-01T12:36:53Z</time>
      </trkpt>
      <trkpt lat="45.9886" lon="4.3975">
        <ele>667</ele>
        <time>2014-04-01T12:36:58Z</time>
      </trkpt>
      <trkpt lat="45.98862" lon="4.39757">
        <ele>668</ele>
        <time>2014-04-01T12:37:03Z</time>
      </trkpt>
      <trkpt lat="45.98864" lon="4.39764">
        <ele>669</ele>
        <time>2014-04-01T12:37:08Z</time>
      </trkpt>
      <trkpt lat="45.98868" lon="4.39772">
        <ele>670</ele>
        <time>2014-04-01T12:37:13Z</time>
      </trkpt>
      <trkpt lat="45.98871" lon="4.39779">
        <ele>671</ele>
        <time>2014-04-01T12:37:18Z</time>
      </trkpt>
      <trkpt lat="45.98874" lon="4.39787">
        <ele>672</ele>
        <time>2014-04-01T12:37:23Z</time>
      </trkpt>
      <trkpt lat="45.98877" lon="4.39795">
        <ele>673</ele>
        <time>2014-04-01T12:37:28Z</time>
      </trkpt>
      <trkpt lat="45.98881" lon="4.39805">
        <ele>675</ele>
        <time>2014-04-01T12:37:34Z</time>
      </trkpt>
      <trkpt lat="45.98885" lon="4.39813">
        <ele>676</ele>
        <time>2014-04-01T12:37:39Z</time>
      </trkpt>
      <trkpt lat="45.98888" lon="4.3982">
        <ele>677</ele>
        <time>2014-04-01T12:37:44Z</time>
      </trkpt>
      <trkpt lat="45.98892" lon="4.39828">
        <ele>678</ele>
        <time>2014-04-01T12:37:49Z</time>
      </trkpt>
      <trkpt lat="45.98895" lon="4.39836">
        <ele>679</ele>
        <time>2014-04-01T12:37:54Z</time>
      </trkpt>
      <trkpt lat="45.98898" lon="4.39844">
        <ele>680</ele>
        <time>2014-04-01T12:37:59Z</time>
      </trkpt>
      <trkpt lat="45.98902" lon="4.39851">
        <ele>680</ele>
        <time>2014-04-01T12:38:04Z</time>
      </trkpt>
      <trkpt lat="45.98905" lon="4.39858">
        <ele>681</ele>
        <time>2014-04-01T12:38:09Z</time>
      </trkpt>
      <trkpt lat="45.98908" lon="4.39867">
        <ele>682</ele>
        <time>2014-04-01T12:38:14Z</time>
      </trkpt>
      <trkpt lat="45.98912" lon="4.39873">
        <ele>683</ele>
        <time>2014-04-01T12:38:19Z</time>
      </trkpt>
      <trkpt lat="45.98917" lon="4.3988">
        <ele>683</ele>
        <time>2014-04-01T12:38:24Z</time>
      </trkpt>
      <trkpt lat="45.98922" lon="4.39885">
        <ele>683</ele>
        <time>2014-04-01T12:38:29Z</time>
      </trkpt>
      <trkpt lat="45.98927" lon="4.39891">
        <ele>683</ele>
        <time>2014-04-01T12:38:34Z</time>
      </trkpt>
      <trkpt lat="45.98933" lon="4.39897">
        <ele>683</ele>
        <time>2014-04-01T12:38:39Z</time>
      </trkpt>
      <trkpt lat="45.98938" lon="4.39903">
        <ele>683</ele>
        <time>2014-04-01T12:38:44Z</time>
      </trkpt>
      <trkpt lat="45.98944" lon="4.39911">
        <ele>683</ele>
        <time>2014-04-01T12:38:49Z</time>
      </trkpt>
      <trkpt lat="45.9895" lon="4.3992">
        <ele>684</ele>
        <time>2014-04-01T12:38:54Z</time>
      </trkpt>
      <trkpt lat="45.98957" lon="4.3993">
        <ele>685</ele>
        <time>2014-04-01T12:38:59Z</time>
      </trkpt>
      <trkpt lat="45.98966" lon="4.39942">
        <ele>686</ele>
        <time>2014-04-01T12:39:05Z</time>
      </trkpt>
      <trkpt lat="45.98975" lon="4.39954">
        <ele>687</ele>
        <time>2014-04-01T12:39:11Z</time>
      </trkpt>
      <trkpt lat="45.98981" lon="4.39965">
        <ele>688</ele>
        <time>2014-04-01T12:39:16Z</time>
      </trkpt>
      <trkpt lat="45.98988" lon="4.39974">
        <ele>689</ele>
        <time>2014-04-01T12:39:21Z</time>
      </trkpt>
      <trkpt lat="45.98995" lon="4.39984">
        <ele>690</ele>
        <time>2014-04-01T12:39:26Z</time>
      </trkpt>
      <trkpt lat="45.99003" lon="4.39993">
        <ele>690</ele>
        <time>2014-04-01T12:39:31Z</time>
      </trkpt>
      <trkpt lat="45.9901" lon="4.40001">
        <ele>691</ele>
        <time>2014-04-01T12:39:36Z</time>
      </trkpt>
      <trkpt lat="45.99017" lon="4.4001">
        <ele>692</ele>
        <time>2014-04-01T12:39:41Z</time>
      </trkpt>
      <trkpt lat="45.99023" lon="4.40018">
        <ele>693</ele>
        <time>2014-04-01T12:39:46Z</time>
      </trkpt>
      <trkpt lat="45.9903" lon="4.40026">
        <ele>694</ele>
        <time>2014-04-01T12:39:51Z</time>
      </trkpt>
      <trkpt lat="45.99036" lon="4.40035">
        <ele>695</ele>
        <time>2014-04-01T12:39:56Z</time>
      </trkpt>
      <trkpt lat="45.99042" lon="4.40045">
        <ele>696</ele>
        <time>2014-04-01T12:40:01Z</time>
      </trkpt>
      <trkpt lat="45.99048" lon="4.40055">
        <ele>698</ele>
        <time>2014-04-01T12:40:06Z</time>
      </trkpt>
      <trkpt lat="45.99052" lon="4.40064">
        <ele>699</ele>
        <time>2014-04-01T12:40:11Z</time>
      </trkpt>
      <trkpt lat="45.99056" lon="4.40072">
        <ele>700</ele>
        <time>2014-04-01T12:40:16Z</time>
      </trkpt>
      <trkpt lat="45.9906" lon="4.40081">
        <ele>701</ele>
        <time>2014-04-01T12:40:21Z</time>
      </trkpt>
      <trkpt lat="45.99065" lon="4.40087">
        <ele>702</ele>
        <time>2014-04-01T12:40:26Z</time>
      </trkpt>
      <trkpt lat="45.9907" lon="4.40094">
        <ele>703</ele>
        <time>2014-04-01T12:40:31Z</time>
      </trkpt>
      <trkpt lat="45.99077" lon="4.40101">
        <ele>703</ele>
        <time>2014-04-01T12:40:36Z</time>
      </trkpt>
      <trkpt lat="45.99083" lon="4.40107">
        <ele>704</ele>
        <time>2014-04-01T12:40:41Z</time>
      </trkpt>
      <trkpt lat="45.9909" lon="4.40113">
        <ele>705</ele>
        <time>2014-04-01T12:40:46Z</time>
      </trkpt>
      <trkpt lat="45.99095" lon="4.40119">
        <ele>706</ele>
        <time>2014-04-01T12:40:51Z</time>
      </trkpt>
      <trkpt lat="45.99101" lon="4.40126">
        <ele>708</ele>
        <time>2014-04-01T12:40:56Z</time>
      </trkpt>
      <trkpt lat="45.99107" lon="4.40133">
        <ele>709</ele>
        <time>2014-04-01T12:41:01Z</time>
      </trkpt>
      <trkpt lat="45.99113" lon="4.4014">
        <ele>710</ele>
        <time>2014-04-01T12:41:06Z</time>
      </trkpt>
      <trkpt lat="45.99118" lon="4.40147">
        <ele>711</ele>
        <time>2014-04-01T12:41:11Z</time>
      </trkpt>
      <trkpt lat="45.99124" lon="4.40153">
        <ele>712</ele>
        <time>2014-04-01T12:41:16Z</time>
      </trkpt>
      <trkpt lat="45.9913" lon="4.4016">
        <ele>713</ele>
        <time>2014-04-01T12:41:21Z</time>
      </trkpt>
      <trkpt lat="45.99136" lon="4.40166">
        <ele>714</ele>
        <time>2014-04-01T12:41:26Z</time>
      </trkpt>
      <trkpt lat="45.99142" lon="4.40173">
        <ele>714</ele>
        <time>2014-04-01T12:41:31Z</time>
      </trkpt>
      <trkpt lat="45.99149" lon="4.40181">
        <ele>715</ele>
        <time>2014-04-01T12:41:36Z</time>
      </trkpt>
      <trkpt lat="45.99155" lon="4.40188">
        <ele>716</ele>
        <time>2014-04-01T12:41:41Z</time>
      </trkpt>
      <trkpt lat="45.99162" lon="4.40197">
        <ele>717</ele>
        <time>2014-04-01T12:41:46Z</time>
      </trkpt>
      <trkpt lat="45.99168" lon="4.40205">
        <ele>717</ele>
        <time>2014-04-01T12:41:51Z</time>
      </trkpt>
      <trkpt lat="45.99173" lon="4.40217">
        <ele>718</ele>
        <time>2014-04-01T12:41:56Z</time>
      </trkpt>
      <trkpt lat="45.99173" lon="4.4023">
        <ele>719</ele>
        <time>2014-04-01T12:42:01Z</time>
      </trkpt>
      <trkpt lat="45.99172" lon="4.40244">
        <ele>720</ele>
        <time>2014-04-01T12:42:06Z</time>
      </trkpt>
      <trkpt lat="45.9917" lon="4.40258">
        <ele>721</ele>
        <time>2014-04-01T12:42:11Z</time>
      </trkpt>
      <trkpt lat="45.99168" lon="4.4027">
        <ele>721</ele>
        <time>2014-04-01T12:42:16Z</time>
      </trkpt>
      <trkpt lat="45.99171" lon="4.40288">
        <ele>722</ele>
        <time>2014-04-01T12:42:21Z</time>
      </trkpt>
      <trkpt lat="45.99175" lon="4.40305">
        <ele>723</ele>
        <time>2014-04-01T12:42:26Z</time>
      </trkpt>
      <trkpt lat="45.99178" lon="4.40325">
        <ele>723</ele>
        <time>2014-04-01T12:42:31Z</time>
      </trkpt>
      <trkpt lat="45.9918" lon="4.40346">
        <ele>724</ele>
        <time>2014-04-01T12:42:36Z</time>
      </trkpt>
      <trkpt lat="45.99181" lon="4.40367">
        <ele>724</ele>
        <time>2014-04-01T12:42:41Z</time>
      </trkpt>
      <trkpt lat="45.99184" lon="4.40389">
        <ele>724</ele>
        <time>2014-04-01T12:42:46Z</time>
      </trkpt>
      <trkpt lat="45.99186" lon="4.40411">
        <ele>723</ele>
        <time>2014-04-01T12:42:51Z</time>
      </trkpt>
      <trkpt lat="45.99189" lon="4.40432">
        <ele>723</ele>
        <time>2014-04-01T12:42:56Z</time>
      </trkpt>
      <trkpt lat="45.99192" lon="4.40453">
        <ele>723</ele>
        <time>2014-04-01T12:43:01Z</time>
      </trkpt>
      <trkpt lat="45.99194" lon="4.40474">
        <ele>724</ele>
        <time>2014-04-01T12:43:06Z</time>
      </trkpt>
      <trkpt lat="45.99199" lon="4.40494">
        <ele>723</ele>
        <time>2014-04-01T12:43:11Z</time>
      </trkpt>
      <trkpt lat="45.99202" lon="4.40515">
        <ele>725</ele>
        <time>2014-04-01T12:43:16Z</time>
      </trkpt>
      <trkpt lat="45.99207" lon="4.40536">
        <ele>725</ele>
        <time>2014-04-01T12:43:21Z</time>
      </trkpt>
      <trkpt lat="45.9921" lon="4.40557">
        <ele>726</ele>
        <time>2014-04-01T12:43:26Z</time>
      </trkpt>
      <trkpt lat="45.99211" lon="4.40578">
        <ele>728</ele>
        <time>2014-04-01T12:43:31Z</time>
      </trkpt>
      <trkpt lat="45.99213" lon="4.406">
        <ele>730</ele>
        <time>2014-04-01T12:43:36Z</time>
      </trkpt>
      <trkpt lat="45.99217" lon="4.40621">
        <ele>731</ele>
        <time>2014-04-01T12:43:41Z</time>
      </trkpt>
      <trkpt lat="45.9922" lon="4.40641">
        <ele>731</ele>
        <time>2014-04-01T12:43:46Z</time>
      </trkpt>
      <trkpt lat="45.99223" lon="4.40662">
        <ele>731</ele>
        <time>2014-04-01T12:43:51Z</time>
      </trkpt>
      <trkpt lat="45.99223" lon="4.4068">
        <ele>732</ele>
        <time>2014-04-01T12:43:56Z</time>
      </trkpt>
      <trkpt lat="45.99219" lon="4.40702">
        <ele>733</ele>
        <time>2014-04-01T12:44:01Z</time>
      </trkpt>
      <trkpt lat="45.99218" lon="4.40724">
        <ele>733</ele>
        <time>2014-04-01T12:44:06Z</time>
      </trkpt>
      <trkpt lat="45.99219" lon="4.40746">
        <ele>732</ele>
        <time>2014-04-01T12:44:11Z</time>
      </trkpt>
      <trkpt lat="45.99218" lon="4.40768">
        <ele>731</ele>
        <time>2014-04-01T12:44:16Z</time>
      </trkpt>
      <trkpt lat="45.99219" lon="4.40789">
        <ele>731</ele>
        <time>2014-04-01T12:44:21Z</time>
      </trkpt>
      <trkpt lat="45.99216" lon="4.40812">
        <ele>732</ele>
        <time>2014-04-01T12:44:26Z</time>
      </trkpt>
      <trkpt lat="45.99212" lon="4.40834">
        <ele>734</ele>
        <time>2014-04-01T12:44:31Z</time>
      </trkpt>
      <trkpt lat="45.9921" lon="4.40855">
        <ele>736</ele>
        <time>2014-04-01T12:44:36Z</time>
      </trkpt>
      <trkpt lat="45.99208" lon="4.40877">
        <ele>738</ele>
        <time>2014-04-01T12:44:41Z</time>
      </trkpt>
      <trkpt lat="45.99208" lon="4.40898">
        <ele>740</ele>
        <time>2014-04-01T12:44:46Z</time>
      </trkpt>
      <trkpt lat="45.9921" lon="4.40919">
        <ele>741</ele>
        <time>2014-04-01T12:44:51Z</time>
      </trkpt>
      <trkpt lat="45.99218" lon="4.40939">
        <ele>739</ele>
        <time>2014-04-01T12:44:56Z</time>
      </trkpt>
      <trkpt lat="45.99223" lon="4.40959">
        <ele>739</ele>
        <time>2014-04-01T12:45:01Z</time>
      </trkpt>
      <trkpt lat="45.99228" lon="4.4098">
        <ele>740</ele>
        <time>2014-04-01T12:45:06Z</time>
      </trkpt>
      <trkpt lat="45.99234" lon="4.41">
        <ele>741</ele>
        <time>2014-04-01T12:45:11Z</time>
      </trkpt>
      <trkpt lat="45.99238" lon="4.41019">
        <ele>742</ele>
        <time>2014-04-01T12:45:16Z</time>
      </trkpt>
      <trkpt lat="45.99244" lon="4.41039">
        <ele>742</ele>
        <time>2014-04-01T12:45:21Z</time>
      </trkpt>
      <trkpt lat="45.99251" lon="4.41058">
        <ele>742</ele>
        <time>2014-04-01T12:45:26Z</time>
      </trkpt>
      <trkpt lat="45.99257" lon="4.41077">
        <ele>742</ele>
        <time>2014-04-01T12:45:31Z</time>
      </trkpt>
      <trkpt lat="45.99263" lon="4.41097">
        <ele>743</ele>
        <time>2014-04-01T12:45:36Z</time>
      </trkpt>
      <trkpt lat="45.99269" lon="4.41116">
        <ele>743</ele>
        <time>2014-04-01T12:45:41Z</time>
      </trkpt>
      <trkpt lat="45.99274" lon="4.41136">
        <ele>744</ele>
        <time>2014-04-01T12:45:46Z</time>
      </trkpt>
      <trkpt lat="45.99277" lon="4.41157">
        <ele>745</ele>
        <time>2014-04-01T12:45:51Z</time>
      </trkpt>
      <trkpt lat="45.99282" lon="4.41177">
        <ele>746</ele>
        <time>2014-04-01T12:45:56Z</time>
      </trkpt>
      <trkpt lat="45.99285" lon="4.41198">
        <ele>747</ele>
        <time>2014-04-01T12:46:01Z</time>
      </trkpt>
      <trkpt lat="45.99289" lon="4.41217">
        <ele>748</ele>
        <time>2014-04-01T12:46:06Z</time>
      </trkpt>
      <trkpt lat="45.99294" lon="4.41236">
        <ele>749</ele>
        <time>2014-04-01T12:46:11Z</time>
      </trkpt>
      <trkpt lat="45.99297" lon="4.41254">
        <ele>751</ele>
        <time>2014-04-01T12:46:16Z</time>
      </trkpt>
      <trkpt lat="45.99303" lon="4.41273">
        <ele>751</ele>
        <time>2014-04-01T12:46:21Z</time>
      </trkpt>
      <trkpt lat="45.99311" lon="4.4129">
        <ele>752</ele>
        <time>2014-04-01T12:46:26Z</time>
      </trkpt>
      <trkpt lat="45.99319" lon="4.41307">
        <ele>753</ele>
        <time>2014-04-01T12:46:31Z</time>
      </trkpt>
      <trkpt lat="45.99328" lon="4.41326">
        <ele>754</ele>
        <time>2014-04-01T12:46:37Z</time>
      </trkpt>
      <trkpt lat="45.99334" lon="4.41342">
        <ele>754</ele>
        <time>2014-04-01T12:46:42Z</time>
      </trkpt>
      <trkpt lat="45.99342" lon="4.41358">
        <ele>755</ele>
        <time>2014-04-01T12:46:47Z</time>
      </trkpt>
      <trkpt lat="45.99351" lon="4.41374">
        <ele>755</ele>
        <time>2014-04-01T12:46:52Z</time>
      </trkpt>
      <trkpt lat="45.9936" lon="4.41389">
        <ele>756</ele>
        <time>2014-04-01T12:46:57Z</time>
      </trkpt>
      <trkpt lat="45.9937" lon="4.41404">
        <ele>756</ele>
        <time>2014-04-01T12:47:02Z</time>
      </trkpt>
      <trkpt lat="45.9938" lon="4.41419">
        <ele>757</ele>
        <time>2014-04-01T12:47:07Z</time>
      </trkpt>
      <trkpt lat="45.9939" lon="4.41433">
        <ele>757</ele>
        <time>2014-04-01T12:47:12Z</time>
      </trkpt>
      <trkpt lat="45.994" lon="4.41447">
        <ele>757</ele>
        <time>2014-04-01T12:47:17Z</time>
      </trkpt>
      <trkpt lat="45.99411" lon="4.41461">
        <ele>758</ele>
        <time>2014-04-01T12:47:22Z</time>
      </trkpt>
      <trkpt lat="45.99423" lon="4.41475">
        <ele>758</ele>
        <time>2014-04-01T12:47:27Z</time>
      </trkpt>
      <trkpt lat="45.99435" lon="4.41487">
        <ele>757</ele>
        <time>2014-04-01T12:47:32Z</time>
      </trkpt>
      <trkpt lat="45.99448" lon="4.41498">
        <ele>757</ele>
        <time>2014-04-01T12:47:37Z</time>
      </trkpt>
      <trkpt lat="45.99461" lon="4.41508">
        <ele>757</ele>
        <time>2014-04-01T12:47:42Z</time>
      </trkpt>
      <trkpt lat="45.99474" lon="4.41516">
        <ele>757</ele>
        <time>2014-04-01T12:47:47Z</time>
      </trkpt>
      <trkpt lat="45.99488" lon="4.41524">
        <ele>757</ele>
        <time>2014-04-01T12:47:52Z</time>
      </trkpt>
      <trkpt lat="45.99502" lon="4.41531">
        <ele>757</ele>
        <time>2014-04-01T12:47:57Z</time>
      </trkpt>
      <trkpt lat="45.99516" lon="4.41538">
        <ele>758</ele>
        <time>2014-04-01T12:48:02Z</time>
      </trkpt>
      <trkpt lat="45.99533" lon="4.41545">
        <ele>760</ele>
        <time>2014-04-01T12:48:08Z</time>
      </trkpt>
      <trkpt lat="45.99547" lon="4.4155">
        <ele>761</ele>
        <time>2014-04-01T12:48:13Z</time>
      </trkpt>
      <trkpt lat="45.99563" lon="4.41553">
        <ele>761</ele>
        <time>2014-04-01T12:48:18Z</time>
      </trkpt>
      <trkpt lat="45.99578" lon="4.41554">
        <ele>762</ele>
        <time>2014-04-01T12:48:23Z</time>
      </trkpt>
      <trkpt lat="45.99593" lon="4.41552">
        <ele>761</ele>
        <time>2014-04-01T12:48:28Z</time>
      </trkpt>
      <trkpt lat="45.99607" lon="4.41547">
        <ele>761</ele>
        <time>2014-04-01T12:48:33Z</time>
      </trkpt>
      <trkpt lat="45.99621" lon="4.41542">
        <ele>760</ele>
        <time>2014-04-01T12:48:38Z</time>
      </trkpt>
      <trkpt lat="45.99635" lon="4.41537">
        <ele>759</ele>
        <time>2014-04-01T12:48:43Z</time>
      </trkpt>
      <trkpt lat="45.9965" lon="4.41537">
        <ele>759</ele>
        <time>2014-04-01T12:48:48Z</time>
      </trkpt>
      <trkpt lat="45.99664" lon="4.41542">
        <ele>760</ele>
        <time>2014-04-01T12:48:53Z</time>
      </trkpt>
      <trkpt lat="45.99677" lon="4.41552">
        <ele>761</ele>
        <time>2014-04-01T12:48:58Z</time>
      </trkpt>
      <trkpt lat="45.9969" lon="4.41563">
        <ele>762</ele>
        <time>2014-04-01T12:49:03Z</time>
      </trkpt>
      <trkpt lat="45.99701" lon="4.41575">
        <ele>763</ele>
        <time>2014-04-01T12:49:08Z</time>
      </trkpt>
      <trkpt lat="45.99711" lon="4.41589">
        <ele>763</ele>
        <time>2014-04-01T12:49:13Z</time>
      </trkpt>
      <trkpt lat="45.99719" lon="4.41607">
        <ele>764</ele>
        <time>2014-04-01T12:49:18Z</time>
      </trkpt>
      <trkpt lat="45.99724" lon="4.41627">
        <ele>766</ele>
        <time>2014-04-01T12:49:23Z</time>
      </trkpt>
      <trkpt lat="45.99728" lon="4.41648">
        <ele>767</ele>
        <time>2014-04-01T12:49:28Z</time>
      </trkpt>
      <trkpt lat="45.99733" lon="4.41668">
        <ele>769</ele>
        <time>2014-04-01T12:49:33Z</time>
      </trkpt>
      <trkpt lat="45.99741" lon="4.41689">
        <ele>770</ele>
        <time>2014-04-01T12:49:38Z</time>
      </trkpt>
      <trkpt lat="45.99748" lon="4.4171">
        <ele>770</ele>
        <time>2014-04-01T12:49:43Z</time>
      </trkpt>
      <trkpt lat="45.99756" lon="4.41729">
        <ele>771</ele>
        <time>2014-04-01T12:49:48Z</time>
      </trkpt>
      <trkpt lat="45.99764" lon="4.41747">
        <ele>771</ele>
        <time>2014-04-01T12:49:53Z</time>
      </trkpt>
      <trkpt lat="45.99772" lon="4.41766">
        <ele>772</ele>
        <time>2014-04-01T12:49:58Z</time>
      </trkpt>
      <trkpt lat="45.99782" lon="4.41784">
        <ele>773</ele>
        <time>2014-04-01T12:50:03Z</time>
      </trkpt>
      <trkpt lat="45.99791" lon="4.41802">
        <ele>775</ele>
        <time>2014-04-01T12:50:08Z</time>
      </trkpt>
      <trkpt lat="45.99799" lon="4.4182">
        <ele>776</ele>
        <time>2014-04-01T12:50:13Z</time>
      </trkpt>
      <trkpt lat="45.99808" lon="4.41839">
        <ele>777</ele>
        <time>2014-04-01T12:50:18Z</time>
      </trkpt>
      <trkpt lat="45.99817" lon="4.41857">
        <ele>778</ele>
        <time>2014-04-01T12:50:23Z</time>
      </trkpt>
      <trkpt lat="45.99827" lon="4.41873">
        <ele>777</ele>
        <time>2014-04-01T12:50:28Z</time>
      </trkpt>
      <trkpt lat="45.99836" lon="4.41886">
        <ele>777</ele>
        <time>2014-04-01T12:50:33Z</time>
      </trkpt>
      <trkpt lat="45.99845" lon="4.41898">
        <ele>778</ele>
        <time>2014-04-01T12:50:38Z</time>
      </trkpt>
      <trkpt lat="45.99855" lon="4.41905">
        <ele>778</ele>
        <time>2014-04-01T12:50:43Z</time>
      </trkpt>
      <trkpt lat="45.99867" lon="4.41906">
        <ele>779</ele>
        <time>2014-04-01T12:50:48Z</time>
      </trkpt>
      <trkpt lat="45.99873" lon="4.4191">
        <ele>780</ele>
        <time>2014-04-01T12:50:53Z</time>
      </trkpt>
      <trkpt lat="45.99871" lon="4.41908">
        <ele>780</ele>
        <time>2014-04-01T12:51:16Z</time>
      </trkpt>
      <trkpt lat="45.99871" lon="4.4191">
        <ele>780</ele>
        <time>2014-04-01T12:51:46Z</time>
      </trkpt>
      <trkpt lat="45.99871" lon="4.4191">
        <ele>780</ele>
        <time>2014-04-01T12:52:01Z</time>
      </trkpt>
      <trkpt lat="45.99871" lon="4.41911">
        <ele>780</ele>
        <time>2014-04-01T12:52:16Z</time>
      </trkpt>
      <trkpt lat="45.99871" lon="4.41909">
        <ele>780</ele>
        <time>2014-04-01T12:52:31Z</time>
      </trkpt>
      <trkpt lat="45.99871" lon="4.41908">
        <ele>780</ele>
        <time>2014-04-01T12:52:46Z</time>
      </trkpt>
      <trkpt lat="45.99871" lon="4.41908">
        <ele>780</ele>
        <time>2014-04-01T12:53:01Z</time>
      </trkpt>
      <trkpt lat="45.99876" lon="4.41907">
        <ele>780</ele>
        <time>2014-04-01T12:53:10Z</time>
      </trkpt>
      <trkpt lat="45.99886" lon="4.41909">
        <ele>781</ele>
        <time>2014-04-01T12:53:15Z</time>
      </trkpt>
      <trkpt lat="45.99896" lon="4.4191">
        <ele>781</ele>
        <time>2014-04-01T12:53:20Z</time>
      </trkpt>
      <trkpt lat="45.99909" lon="4.41912">
        <ele>782</ele>
        <time>2014-04-01T12:53:26Z</time>
      </trkpt>
      <trkpt lat="45.9992" lon="4.41913">
        <ele>783</ele>
        <time>2014-04-01T12:53:31Z</time>
      </trkpt>
      <trkpt lat="45.99931" lon="4.41913">
        <ele>784</ele>
        <time>2014-04-01T12:53:36Z</time>
      </trkpt>
      <trkpt lat="45.9994" lon="4.41912">
        <ele>785</ele>
        <time>2014-04-01T12:53:41Z</time>
      </trkpt>
      <trkpt lat="45.99944" lon="4.4191">
        <ele>786</ele>
        <time>2014-04-01T12:54:01Z</time>
      </trkpt>
      <trkpt lat="45.99945" lon="4.41911">
        <ele>786</ele>
        <time>2014-04-01T12:54:05Z</time>
      </trkpt>
      <trkpt lat="45.99951" lon="4.41907">
        <ele>786</ele>
        <time>2014-04-01T12:54:10Z</time>
      </trkpt>
      <trkpt lat="45.99958" lon="4.41902">
        <ele>787</ele>
        <time>2014-04-01T12:54:15Z</time>
      </trkpt>
      <trkpt lat="45.99964" lon="4.41898">
        <ele>788</ele>
        <time>2014-04-01T12:54:20Z</time>
      </trkpt>
      <trkpt lat="45.9997" lon="4.41892">
        <ele>788</ele>
        <time>2014-04-01T12:54:25Z</time>
      </trkpt>
      <trkpt lat="45.99978" lon="4.41883">
        <ele>789</ele>
        <time>2014-04-01T12:54:31Z</time>
      </trkpt>
      <trkpt lat="45.99986" lon="4.41876">
        <ele>791</ele>
        <time>2014-04-01T12:54:36Z</time>
      </trkpt>
      <trkpt lat="45.99992" lon="4.41871">
        <ele>792</ele>
        <time>2014-04-01T12:54:41Z</time>
      </trkpt>
      <trkpt lat="45.99999" lon="4.41866">
        <ele>793</ele>
        <time>2014-04-01T12:54:46Z</time>
      </trkpt>
      <trkpt lat="46.00006" lon="4.4186">
        <ele>794</ele>
        <time>2014-04-01T12:54:51Z</time>
      </trkpt>
      <trkpt lat="46.00011" lon="4.41853">
        <ele>795</ele>
        <time>2014-04-01T12:54:56Z</time>
      </trkpt>
      <trkpt lat="46.00016" lon="4.41847">
        <ele>796</ele>
        <time>2014-04-01T12:55:01Z</time>
      </trkpt>
      <trkpt lat="46.00021" lon="4.41841">
        <ele>797</ele>
        <time>2014-04-01T12:55:06Z</time>
      </trkpt>
      <trkpt lat="46.00026" lon="4.41836">
        <ele>798</ele>
        <time>2014-04-01T12:55:11Z</time>
      </trkpt>
      <trkpt lat="46.0003" lon="4.41831">
        <ele>799</ele>
        <time>2014-04-01T12:55:16Z</time>
      </trkpt>
      <trkpt lat="46.00033" lon="4.41825">
        <ele>799</ele>
        <time>2014-04-01T12:55:27Z</time>
      </trkpt>
      <trkpt lat="46.00037" lon="4.41819">
        <ele>800</ele>
        <time>2014-04-01T12:55:34Z</time>
      </trkpt>
      <trkpt lat="46.0004" lon="4.41825">
        <ele>801</ele>
        <time>2014-04-01T12:55:49Z</time>
      </trkpt>
      <trkpt lat="46.00035" lon="4.41834">
        <ele>800</ele>
        <time>2014-04-01T12:55:54Z</time>
      </trkpt>
      <trkpt lat="46.00024" lon="4.41849">
        <ele>797</ele>
        <time>2014-04-01T12:55:59Z</time>
      </trkpt>
      <trkpt lat="46.00014" lon="4.4186">
        <ele>796</ele>
        <time>2014-04-01T12:56:04Z</time>
      </trkpt>
      <trkpt lat="46.00013" lon="4.41867">
        <ele>795</ele>
        <time>2014-04-01T12:56:10Z</time>
      </trkpt>
      <trkpt lat="46.00016" lon="4.41873">
        <ele>795</ele>
        <time>2014-04-01T12:56:21Z</time>
      </trkpt>
      <trkpt lat="46.0002" lon="4.41875">
        <ele>796</ele>
        <time>2014-04-01T12:56:41Z</time>
      </trkpt>
      <trkpt lat="46.00026" lon="4.41874">
        <ele>797</ele>
        <time>2014-04-01T12:56:56Z</time>
      </trkpt>
      <trkpt lat="46.00032" lon="4.41874">
        <ele>798</ele>
        <time>2014-04-01T12:57:01Z</time>
      </trkpt>
      <trkpt lat="46.00041" lon="4.41872">
        <ele>799</ele>
        <time>2014-04-01T12:57:06Z</time>
      </trkpt>
      <trkpt lat="46.00046" lon="4.41871">
        <ele>800</ele>
        <time>2014-04-01T12:57:11Z</time>
      </trkpt>
      <trkpt lat="46.00053" lon="4.41871">
        <ele>801</ele>
        <time>2014-04-01T12:57:16Z</time>
      </trkpt>
      <trkpt lat="46.00059" lon="4.4187">
        <ele>802</ele>
        <time>2014-04-01T12:57:21Z</time>
      </trkpt>
      <trkpt lat="46.00063" lon="4.41873">
        <ele>803</ele>
        <time>2014-04-01T12:57:26Z</time>
      </trkpt>
      <trkpt lat="46.00071" lon="4.41873">
        <ele>804</ele>
        <time>2014-04-01T12:57:31Z</time>
      </trkpt>
      <trkpt lat="46.00079" lon="4.41872">
        <ele>805</ele>
        <time>2014-04-01T12:57:36Z</time>
      </trkpt>
      <trkpt lat="46.00084" lon="4.41868">
        <ele>807</ele>
        <time>2014-04-01T12:57:41Z</time>
      </trkpt>
      <trkpt lat="46.00089" lon="4.41865">
        <ele>808</ele>
        <time>2014-04-01T12:57:53Z</time>
      </trkpt>
      <trkpt lat="46.00093" lon="4.41862">
        <ele>809</ele>
        <time>2014-04-01T12:58:00Z</time>
      </trkpt>
      <trkpt lat="46.00097" lon="4.41858">
        <ele>810</ele>
        <time>2014-04-01T12:58:09Z</time>
      </trkpt>
      <trkpt lat="46.00102" lon="4.41856">
        <ele>811</ele>
        <time>2014-04-01T12:58:19Z</time>
      </trkpt>
      <trkpt lat="46.00108" lon="4.41849">
        <ele>812</ele>
        <time>2014-04-01T12:58:25Z</time>
      </trkpt>
      <trkpt lat="46.00112" lon="4.41847">
        <ele>813</ele>
        <time>2014-04-01T12:58:32Z</time>
      </trkpt>
      <trkpt lat="46.00117" lon="4.41846">
        <ele>814</ele>
        <time>2014-04-01T12:58:37Z</time>
      </trkpt>
      <trkpt lat="46.00122" lon="4.41844">
        <ele>815</ele>
        <time>2014-04-01T12:58:42Z</time>
      </trkpt>
      <trkpt lat="46.00127" lon="4.41844">
        <ele>815</ele>
        <time>2014-04-01T12:58:51Z</time>
      </trkpt>
      <trkpt lat="46.00132" lon="4.41842">
        <ele>816</ele>
        <time>2014-04-01T12:58:56Z</time>
      </trkpt>
      <trkpt lat="46.00137" lon="4.41842">
        <ele>817</ele>
        <time>2014-04-01T12:59:04Z</time>
      </trkpt>
      <trkpt lat="46.00142" lon="4.41844">
        <ele>818</ele>
        <time>2014-04-01T12:59:12Z</time>
      </trkpt>
      <trkpt lat="46.00146" lon="4.41841">
        <ele>819</ele>
        <time>2014-04-01T12:59:18Z</time>
      </trkpt>
      <trkpt lat="46.0015" lon="4.41838">
        <ele>820</ele>
        <time>2014-04-01T12:59:27Z</time>
      </trkpt>
      <trkpt lat="46.00154" lon="4.41833">
        <ele>820</ele>
        <time>2014-04-01T12:59:34Z</time>
      </trkpt>
      <trkpt lat="46.00158" lon="4.41829">
        <ele>821</ele>
        <time>2014-04-01T12:59:41Z</time>
      </trkpt>
      <trkpt lat="46.00162" lon="4.41827">
        <ele>822</ele>
        <time>2014-04-01T12:59:47Z</time>
      </trkpt>
      <trkpt lat="46.00166" lon="4.41823">
        <ele>823</ele>
        <time>2014-04-01T12:59:56Z</time>
      </trkpt>
      <trkpt lat="46.00171" lon="4.41821">
        <ele>824</ele>
        <time>2014-04-01T13:00:02Z</time>
      </trkpt>
      <trkpt lat="46.00175" lon="4.41821">
        <ele>824</ele>
        <time>2014-04-01T13:00:08Z</time>
      </trkpt>
      <trkpt lat="46.0018" lon="4.41822">
        <ele>825</ele>
        <time>2014-04-01T13:00:14Z</time>
      </trkpt>
      <trkpt lat="46.00185" lon="4.41822">
        <ele>826</ele>
        <time>2014-04-01T13:00:19Z</time>
      </trkpt>
      <trkpt lat="46.0019" lon="4.41824">
        <ele>826</ele>
        <time>2014-04-01T13:00:24Z</time>
      </trkpt>
      <trkpt lat="46.00194" lon="4.41826">
        <ele>826</ele>
        <time>2014-04-01T13:00:29Z</time>
      </trkpt>
      <trkpt lat="46.00199" lon="4.41829">
        <ele>827</ele>
        <time>2014-04-01T13:00:34Z</time>
      </trkpt>
      <trkpt lat="46.00204" lon="4.4183">
        <ele>827</ele>
        <time>2014-04-01T13:00:42Z</time>
      </trkpt>
      <trkpt lat="46.00212" lon="4.41831">
        <ele>827</ele>
        <time>2014-04-01T13:00:47Z</time>
      </trkpt>
      <trkpt lat="46.00222" lon="4.41832">
        <ele>828</ele>
        <time>2014-04-01T13:00:52Z</time>
      </trkpt>
      <trkpt lat="46.00239" lon="4.41834">
        <ele>829</ele>
        <time>2014-04-01T13:00:57Z</time>
      </trkpt>
      <trkpt lat="46.00256" lon="4.4183">
        <ele>830</ele>
        <time>2014-04-01T13:01:02Z</time>
      </trkpt>
      <trkpt lat="46.00275" lon="4.41833">
        <ele>829</ele>
        <time>2014-04-01T13:01:07Z</time>
      </trkpt>
      <trkpt lat="46.00295" lon="4.4184">
        <ele>827</ele>
        <time>2014-04-01T13:01:12Z</time>
      </trkpt>
      <trkpt lat="46.00318" lon="4.41857">
        <ele>825</ele>
        <time>2014-04-01T13:01:17Z</time>
      </trkpt>
      <trkpt lat="46.00338" lon="4.41874">
        <ele>822</ele>
        <time>2014-04-01T13:01:22Z</time>
      </trkpt>
      <trkpt lat="46.00351" lon="4.41888">
        <ele>820</ele>
        <time>2014-04-01T13:01:27Z</time>
      </trkpt>
      <trkpt lat="46.00369" lon="4.41905">
        <ele>818</ele>
        <time>2014-04-01T13:01:32Z</time>
      </trkpt>
      <trkpt lat="46.00387" lon="4.41924">
        <ele>817</ele>
        <time>2014-04-01T13:01:37Z</time>
      </trkpt>
      <trkpt lat="46.00404" lon="4.41936">
        <ele>814</ele>
        <time>2014-04-01T13:01:42Z</time>
      </trkpt>
      <trkpt lat="46.00417" lon="4.41947">
        <ele>813</ele>
        <time>2014-04-01T13:01:47Z</time>
      </trkpt>
      <trkpt lat="46.00437" lon="4.41965">
        <ele>811</ele>
        <time>2014-04-01T13:01:52Z</time>
      </trkpt>
      <trkpt lat="46.00457" lon="4.41978">
        <ele>810</ele>
        <time>2014-04-01T13:01:57Z</time>
      </trkpt>
      <trkpt lat="46.0047" lon="4.41993">
        <ele>808</ele>
        <time>2014-04-01T13:02:02Z</time>
      </trkpt>
      <trkpt lat="46.00486" lon="4.42005">
        <ele>805</ele>
        <time>2014-04-01T13:02:08Z</time>
      </trkpt>
      <trkpt lat="46.00498" lon="4.42021">
        <ele>803</ele>
        <time>2014-04-01T13:02:13Z</time>
      </trkpt>
      <trkpt lat="46.00508" lon="4.42039">
        <ele>801</ele>
        <time>2014-04-01T13:02:18Z</time>
      </trkpt>
      <trkpt lat="46.00525" lon="4.42046">
        <ele>799</ele>
        <time>2014-04-01T13:02:23Z</time>
      </trkpt>
      <trkpt lat="46.00534" lon="4.42056">
        <ele>798</ele>
        <time>2014-04-01T13:02:28Z</time>
      </trkpt>
      <trkpt lat="46.00544" lon="4.4207">
        <ele>795</ele>
        <time>2014-04-01T13:02:33Z</time>
      </trkpt>
      <trkpt lat="46.00552" lon="4.42084">
        <ele>793</ele>
        <time>2014-04-01T13:02:38Z</time>
      </trkpt>
      <trkpt lat="46.00564" lon="4.421">
        <ele>790</ele>
        <time>2014-04-01T13:02:43Z</time>
      </trkpt>
      <trkpt lat="46.00574" lon="4.42112">
        <ele>788</ele>
        <time>2014-04-01T13:02:48Z</time>
      </trkpt>
      <trkpt lat="46.00585" lon="4.42125">
        <ele>786</ele>
        <time>2014-04-01T13:02:53Z</time>
      </trkpt>
      <trkpt lat="46.00604" lon="4.42138">
        <ele>783</ele>
        <time>2014-04-01T13:02:58Z</time>
      </trkpt>
      <trkpt lat="46.00622" lon="4.42143">
        <ele>779</ele>
        <time>2014-04-01T13:03:03Z</time>
      </trkpt>
      <trkpt lat="46.00638" lon="4.4215">
        <ele>776</ele>
        <time>2014-04-01T13:03:08Z</time>
      </trkpt>
      <trkpt lat="46.00653" lon="4.42152">
        <ele>774</ele>
        <time>2014-04-01T13:03:13Z</time>
      </trkpt>
      <trkpt lat="46.0067" lon="4.42154">
        <ele>772</ele>
        <time>2014-04-01T13:03:18Z</time>
      </trkpt>
      <trkpt lat="46.00687" lon="4.42156">
        <ele>770</ele>
        <time>2014-04-01T13:03:23Z</time>
      </trkpt>
      <trkpt lat="46.00706" lon="4.42158">
        <ele>769</ele>
        <time>2014-04-01T13:03:28Z</time>
      </trkpt>
      <trkpt lat="46.00724" lon="4.42161">
        <ele>767</ele>
        <time>2014-04-01T13:03:33Z</time>
      </trkpt>
      <trkpt lat="46.00741" lon="4.42171">
        <ele>766</ele>
        <time>2014-04-01T13:03:38Z</time>
      </trkpt>
      <trkpt lat="46.00762" lon="4.42179">
        <ele>765</ele>
        <time>2014-04-01T13:03:43Z</time>
      </trkpt>
      <trkpt lat="46.00781" lon="4.42183">
        <ele>763</ele>
        <time>2014-04-01T13:03:48Z</time>
      </trkpt>
      <trkpt lat="46.00798" lon="4.42184">
        <ele>762</ele>
        <time>2014-04-01T13:03:53Z</time>
      </trkpt>
      <trkpt lat="46.00816" lon="4.42177">
        <ele>761</ele>
        <time>2014-04-01T13:03:58Z</time>
      </trkpt>
      <trkpt lat="46.00838" lon="4.42182">
        <ele>761</ele>
        <time>2014-04-01T13:04:03Z</time>
      </trkpt>
      <trkpt lat="46.00853" lon="4.42195">
        <ele>761</ele>
        <time>2014-04-01T13:04:08Z</time>
      </trkpt>
      <trkpt lat="46.00868" lon="4.42208">
        <ele>761</ele>
        <time>2014-04-01T13:04:13Z</time>
      </trkpt>
      <trkpt lat="46.00888" lon="4.42223">
        <ele>762</ele>
        <time>2014-04-01T13:04:18Z</time>
      </trkpt>
      <trkpt lat="46.00914" lon="4.42239">
        <ele>764</ele>
        <time>2014-04-01T13:04:23Z</time>
      </trkpt>
      <trkpt lat="46.00935" lon="4.42251">
        <ele>765</ele>
        <time>2014-04-01T13:04:28Z</time>
      </trkpt>
      <trkpt lat="46.00956" lon="4.42262">
        <ele>767</ele>
        <time>2014-04-01T13:04:33Z</time>
      </trkpt>
      <trkpt lat="46.00975" lon="4.42269">
        <ele>769</ele>
        <time>2014-04-01T13:04:38Z</time>
      </trkpt>
      <trkpt lat="46.00995" lon="4.42279">
        <ele>770</ele>
        <time>2014-04-01T13:04:43Z</time>
      </trkpt>
      <trkpt lat="46.01012" lon="4.4229">
        <ele>771</ele>
        <time>2014-04-01T13:04:48Z</time>
      </trkpt>
      <trkpt lat="46.01027" lon="4.42297">
        <ele>772</ele>
        <time>2014-04-01T13:04:53Z</time>
      </trkpt>
      <trkpt lat="46.0104" lon="4.42305">
        <ele>773</ele>
        <time>2014-04-01T13:04:58Z</time>
      </trkpt>
      <trkpt lat="46.01049" lon="4.42313">
        <ele>774</ele>
        <time>2014-04-01T13:05:03Z</time>
      </trkpt>
      <trkpt lat="46.01061" lon="4.42321">
        <ele>775</ele>
        <time>2014-04-01T13:05:08Z</time>
      </trkpt>
      <trkpt lat="46.01065" lon="4.42325">
        <ele>775</ele>
        <time>2014-04-01T13:05:13Z</time>
      </trkpt>
      <trkpt lat="46.01077" lon="4.42329">
        <ele>776</ele>
        <time>2014-04-01T13:05:18Z</time>
      </trkpt>
      <trkpt lat="46.01087" lon="4.42332">
        <ele>778</ele>
        <time>2014-04-01T13:05:23Z</time>
      </trkpt>
      <trkpt lat="46.01095" lon="4.42334">
        <ele>778</ele>
        <time>2014-04-01T13:05:28Z</time>
      </trkpt>
      <trkpt lat="46.01103" lon="4.42335">
        <ele>779</ele>
        <time>2014-04-01T13:05:33Z</time>
      </trkpt>
      <trkpt lat="46.0111" lon="4.42334">
        <ele>780</ele>
        <time>2014-04-01T13:05:38Z</time>
      </trkpt>
      <trkpt lat="46.01115" lon="4.42334">
        <ele>781</ele>
        <time>2014-04-01T13:05:43Z</time>
      </trkpt>
      <trkpt lat="46.0112" lon="4.42335">
        <ele>781</ele>
        <time>2014-04-01T13:05:48Z</time>
      </trkpt>
      <trkpt lat="46.01126" lon="4.42336">
        <ele>782</ele>
        <time>2014-04-01T13:05:53Z</time>
      </trkpt>
      <trkpt lat="46.01132" lon="4.42337">
        <ele>782</ele>
        <time>2014-04-01T13:05:58Z</time>
      </trkpt>
      <trkpt lat="46.01138" lon="4.42339">
        <ele>783</ele>
        <time>2014-04-01T13:06:03Z</time>
      </trkpt>
      <trkpt lat="46.01143" lon="4.42343">
        <ele>784</ele>
        <time>2014-04-01T13:06:08Z</time>
      </trkpt>
      <trkpt lat="46.01148" lon="4.42347">
        <ele>784</ele>
        <time>2014-04-01T13:06:13Z</time>
      </trkpt>
      <trkpt lat="46.01154" lon="4.42351">
        <ele>784</ele>
        <time>2014-04-01T13:06:18Z</time>
      </trkpt>
      <trkpt lat="46.01159" lon="4.42354">
        <ele>785</ele>
        <time>2014-04-01T13:06:23Z</time>
      </trkpt>
      <trkpt lat="46.01163" lon="4.42359">
        <ele>785</ele>
        <time>2014-04-01T13:06:29Z</time>
      </trkpt>
      <trkpt lat="46.01167" lon="4.42363">
        <ele>786</ele>
        <time>2014-04-01T13:06:35Z</time>
      </trkpt>
      <trkpt lat="46.01172" lon="4.42366">
        <ele>786</ele>
        <time>2014-04-01T13:06:40Z</time>
      </trkpt>
      <trkpt lat="46.01176" lon="4.4237">
        <ele>786</ele>
        <time>2014-04-01T13:06:45Z</time>
      </trkpt>
      <trkpt lat="46.01181" lon="4.42374">
        <ele>787</ele>
        <time>2014-04-01T13:06:50Z</time>
      </trkpt>
      <trkpt lat="46.01186" lon="4.42375">
        <ele>787</ele>
        <time>2014-04-01T13:06:59Z</time>
      </trkpt>
      <trkpt lat="46.01194" lon="4.42376">
        <ele>788</ele>
        <time>2014-04-01T13:07:04Z</time>
      </trkpt>
      <trkpt lat="46.01202" lon="4.42379">
        <ele>789</ele>
        <time>2014-04-01T13:07:09Z</time>
      </trkpt>
      <trkpt lat="46.01206" lon="4.42384">
        <ele>789</ele>
        <time>2014-04-01T13:07:14Z</time>
      </trkpt>
      <trkpt lat="46.01211" lon="4.42388">
        <ele>789</ele>
        <time>2014-04-01T13:07:20Z</time>
      </trkpt>
      <trkpt lat="46.01217" lon="4.42392">
        <ele>790</ele>
        <time>2014-04-01T13:07:25Z</time>
      </trkpt>
      <trkpt lat="46.01222" lon="4.42396">
        <ele>790</ele>
        <time>2014-04-01T13:07:30Z</time>
      </trkpt>
      <trkpt lat="46.01228" lon="4.42397">
        <ele>791</ele>
        <time>2014-04-01T13:07:35Z</time>
      </trkpt>
      <trkpt lat="46.01232" lon="4.42398">
        <ele>791</ele>
        <time>2014-04-01T13:07:40Z</time>
      </trkpt>
      <trkpt lat="46.01237" lon="4.42402">
        <ele>792</ele>
        <time>2014-04-01T13:07:46Z</time>
      </trkpt>
      <trkpt lat="46.01242" lon="4.42402">
        <ele>792</ele>
        <time>2014-04-01T13:07:52Z</time>
      </trkpt>
      <trkpt lat="46.01247" lon="4.42403">
        <ele>793</ele>
        <time>2014-04-01T13:07:59Z</time>
      </trkpt>
      <trkpt lat="46.01252" lon="4.424">
        <ele>793</ele>
        <time>2014-04-01T13:08:06Z</time>
      </trkpt>
      <trkpt lat="46.01257" lon="4.42397">
        <ele>793</ele>
        <time>2014-04-01T13:08:11Z</time>
      </trkpt>
      <trkpt lat="46.01263" lon="4.42395">
        <ele>794</ele>
        <time>2014-04-01T13:08:16Z</time>
      </trkpt>
      <trkpt lat="46.0127" lon="4.42393">
        <ele>794</ele>
        <time>2014-04-01T13:08:21Z</time>
      </trkpt>
      <trkpt lat="46.01282" lon="4.42395">
        <ele>795</ele>
        <time>2014-04-01T13:08:26Z</time>
      </trkpt>
      <trkpt lat="46.0129" lon="4.42396">
        <ele>795</ele>
        <time>2014-04-01T13:08:31Z</time>
      </trkpt>
      <trkpt lat="46.01297" lon="4.424">
        <ele>796</ele>
        <time>2014-04-01T13:08:36Z</time>
      </trkpt>
      <trkpt lat="46.01306" lon="4.42401">
        <ele>796</ele>
        <time>2014-04-01T13:08:41Z</time>
      </trkpt>
      <trkpt lat="46.01315" lon="4.42404">
        <ele>796</ele>
        <time>2014-04-01T13:08:46Z</time>
      </trkpt>
      <trkpt lat="46.0132" lon="4.42405">
        <ele>797</ele>
        <time>2014-04-01T13:08:51Z</time>
      </trkpt>
      <trkpt lat="46.01321" lon="4.42408">
        <ele>797</ele>
        <time>2014-04-01T13:09:17Z</time>
      </trkpt>
      <trkpt lat="46.01321" lon="4.42408">
        <ele>797</ele>
        <time>2014-04-01T13:09:32Z</time>
      </trkpt>
      <trkpt lat="46.01321" lon="4.42408">
        <ele>797</ele>
        <time>2014-04-01T13:09:47Z</time>
      </trkpt>
      <trkpt lat="46.01321" lon="4.42408">
        <ele>797</ele>
        <time>2014-04-01T13:10:17Z</time>
      </trkpt>
      <trkpt lat="46.01322" lon="4.42409">
        <ele>797</ele>
        <time>2014-04-01T13:10:32Z</time>
      </trkpt>
      <trkpt lat="46.01323" lon="4.42409">
        <ele>797</ele>
        <time>2014-04-01T13:10:33Z</time>
      </trkpt>
      <trkpt lat="46.01336" lon="4.42412">
        <ele>798</ele>
        <time>2014-04-01T13:10:38Z</time>
      </trkpt>
      <trkpt lat="46.01357" lon="4.42416">
        <ele>798</ele>
        <time>2014-04-01T13:10:43Z</time>
      </trkpt>
      <trkpt lat="46.01385" lon="4.42417">
        <ele>796</ele>
        <time>2014-04-01T13:10:48Z</time>
      </trkpt>
      <trkpt lat="46.01414" lon="4.4242">
        <ele>794</ele>
        <time>2014-04-01T13:10:53Z</time>
      </trkpt>
      <trkpt lat="46.0145" lon="4.42428">
        <ele>790</ele>
        <time>2014-04-01T13:10:58Z</time>
      </trkpt>
      <trkpt lat="46.0149" lon="4.42446">
        <ele>786</ele>
        <time>2014-04-01T13:11:03Z</time>
      </trkpt>
      <trkpt lat="46.01524" lon="4.42466">
        <ele>786</ele>
        <time>2014-04-01T13:11:08Z</time>
      </trkpt>
      <trkpt lat="46.01556" lon="4.42478">
        <ele>786</ele>
        <time>2014-04-01T13:11:13Z</time>
      </trkpt>
      <trkpt lat="46.01584" lon="4.42498">
        <ele>785</ele>
        <time>2014-04-01T13:11:18Z</time>
      </trkpt>
      <trkpt lat="46.01598" lon="4.42518">
        <ele>786</ele>
        <time>2014-04-01T13:11:23Z</time>
      </trkpt>
      <trkpt lat="46.01609" lon="4.42539">
        <ele>788</ele>
        <time>2014-04-01T13:11:28Z</time>
      </trkpt>
      <trkpt lat="46.01627" lon="4.42562">
        <ele>787</ele>
        <time>2014-04-01T13:11:33Z</time>
      </trkpt>
      <trkpt lat="46.01653" lon="4.42591">
        <ele>784</ele>
        <time>2014-04-01T13:11:38Z</time>
      </trkpt>
      <trkpt lat="46.01681" lon="4.42626">
        <ele>780</ele>
        <time>2014-04-01T13:11:43Z</time>
      </trkpt>
      <trkpt lat="46.01708" lon="4.42659">
        <ele>776</ele>
        <time>2014-04-01T13:11:48Z</time>
      </trkpt>
      <trkpt lat="46.01737" lon="4.42688">
        <ele>773</ele>
        <time>2014-04-01T13:11:53Z</time>
      </trkpt>
      <trkpt lat="46.0176" lon="4.42708">
        <ele>771</ele>
        <time>2014-04-01T13:11:58Z</time>
      </trkpt>
      <trkpt lat="46.0179" lon="4.42732">
        <ele>770</ele>
        <time>2014-04-01T13:12:03Z</time>
      </trkpt>
      <trkpt lat="46.01814" lon="4.42735">
        <ele>769</ele>
        <time>2014-04-01T13:12:08Z</time>
      </trkpt>
      <trkpt lat="46.01839" lon="4.42739">
        <ele>768</ele>
        <time>2014-04-01T13:12:13Z</time>
      </trkpt>
      <trkpt lat="46.01868" lon="4.42747">
        <ele>766</ele>
        <time>2014-04-01T13:12:18Z</time>
      </trkpt>
      <trkpt lat="46.01894" lon="4.42736">
        <ele>764</ele>
        <time>2014-04-01T13:12:23Z</time>
      </trkpt>
      <trkpt lat="46.01924" lon="4.42707">
        <ele>762</ele>
        <time>2014-04-01T13:12:28Z</time>
      </trkpt>
      <trkpt lat="46.0195" lon="4.42686">
        <ele>762</ele>
        <time>2014-04-01T13:12:33Z</time>
      </trkpt>
      <trkpt lat="46.01978" lon="4.42667">
        <ele>762</ele>
        <time>2014-04-01T13:12:38Z</time>
      </trkpt>
      <trkpt lat="46.0201" lon="4.42671">
        <ele>761</ele>
        <time>2014-04-01T13:12:43Z</time>
      </trkpt>
      <trkpt lat="46.02046" lon="4.42681">
        <ele>760</ele>
        <time>2014-04-01T13:12:48Z</time>
      </trkpt>
      <trkpt lat="46.02072" lon="4.42693">
        <ele>758</ele>
        <time>2014-04-01T13:12:53Z</time>
      </trkpt>
      <trkpt lat="46.02084" lon="4.42705">
        <ele>755</ele>
        <time>2014-04-01T13:12:58Z</time>
      </trkpt>
      <trkpt lat="46.0211" lon="4.4272">
        <ele>752</ele>
        <time>2014-04-01T13:13:03Z</time>
      </trkpt>
      <trkpt lat="46.0214" lon="4.42732">
        <ele>752</ele>
        <time>2014-04-01T13:13:08Z</time>
      </trkpt>
      <trkpt lat="46.02167" lon="4.42745">
        <ele>751</ele>
        <time>2014-04-01T13:13:13Z</time>
      </trkpt>
      <trkpt lat="46.022" lon="4.42766">
        <ele>749</ele>
        <time>2014-04-01T13:13:18Z</time>
      </trkpt>
      <trkpt lat="46.02239" lon="4.42779">
        <ele>750</ele>
        <time>2014-04-01T13:13:23Z</time>
      </trkpt>
      <trkpt lat="46.02274" lon="4.42787">
        <ele>747</ele>
        <time>2014-04-01T13:13:28Z</time>
      </trkpt>
      <trkpt lat="46.023" lon="4.42786">
        <ele>747</ele>
        <time>2014-04-01T13:13:33Z</time>
      </trkpt>
      <trkpt lat="46.02328" lon="4.4277">
        <ele>746</ele>
        <time>2014-04-01T13:13:37Z</time>
      </trkpt>
      <trkpt lat="46.02359" lon="4.42739">
        <ele>746</ele>
        <time>2014-04-01T13:13:43Z</time>
      </trkpt>
      <trkpt lat="46.02399" lon="4.427">
        <ele>744</ele>
        <time>2014-04-01T13:13:48Z</time>
      </trkpt>
      <trkpt lat="46.02433" lon="4.42668">
        <ele>739</ele>
        <time>2014-04-01T13:13:53Z</time>
      </trkpt>
      <trkpt lat="46.02454" lon="4.42637">
        <ele>736</ele>
        <time>2014-04-01T13:13:58Z</time>
      </trkpt>
      <trkpt lat="46.02462" lon="4.42605">
        <ele>737</ele>
        <time>2014-04-01T13:14:03Z</time>
      </trkpt>
      <trkpt lat="46.02481" lon="4.42568">
        <ele>734</ele>
        <time>2014-04-01T13:14:08Z</time>
      </trkpt>
      <trkpt lat="46.02507" lon="4.42533">
        <ele>728</ele>
        <time>2014-04-01T13:14:13Z</time>
      </trkpt>
      <trkpt lat="46.02542" lon="4.425">
        <ele>723</ele>
        <time>2014-04-01T13:14:18Z</time>
      </trkpt>
      <trkpt lat="46.02573" lon="4.42466">
        <ele>721</ele>
        <time>2014-04-01T13:14:23Z</time>
      </trkpt>
      <trkpt lat="46.026" lon="4.42437">
        <ele>721</ele>
        <time>2014-04-01T13:14:28Z</time>
      </trkpt>
      <trkpt lat="46.02622" lon="4.42412">
        <ele>723</ele>
        <time>2014-04-01T13:14:33Z</time>
      </trkpt>
      <trkpt lat="46.0264" lon="4.42398">
        <ele>723</ele>
        <time>2014-04-01T13:14:38Z</time>
      </trkpt>
      <trkpt lat="46.0266" lon="4.42386">
        <ele>723</ele>
        <time>2014-04-01T13:14:43Z</time>
      </trkpt>
      <trkpt lat="46.02681" lon="4.42378">
        <ele>723</ele>
        <time>2014-04-01T13:14:48Z</time>
      </trkpt>
      <trkpt lat="46.02703" lon="4.42377">
        <ele>723</ele>
        <time>2014-04-01T13:14:53Z</time>
      </trkpt>
      <trkpt lat="46.02724" lon="4.4238">
        <ele>722</ele>
        <time>2014-04-01T13:14:58Z</time>
      </trkpt>
      <trkpt lat="46.02745" lon="4.42381">
        <ele>725</ele>
        <time>2014-04-01T13:15:03Z</time>
      </trkpt>
      <trkpt lat="46.02758" lon="4.42374">
        <ele>726</ele>
        <time>2014-04-01T13:15:08Z</time>
      </trkpt>
      <trkpt lat="46.02762" lon="4.42377">
        <ele>727</ele>
        <time>2014-04-01T13:15:23Z</time>
      </trkpt>
      <trkpt lat="46.02775" lon="4.42386">
        <ele>728</ele>
        <time>2014-04-01T13:15:28Z</time>
      </trkpt>
      <trkpt lat="46.02792" lon="4.42392">
        <ele>729</ele>
        <time>2014-04-01T13:15:33Z</time>
      </trkpt>
      <trkpt lat="46.0281" lon="4.424">
        <ele>732</ele>
        <time>2014-04-01T13:15:38Z</time>
      </trkpt>
      <trkpt lat="46.02828" lon="4.4241">
        <ele>734</ele>
        <time>2014-04-01T13:15:43Z</time>
      </trkpt>
      <trkpt lat="46.02847" lon="4.42419">
        <ele>737</ele>
        <time>2014-04-01T13:15:48Z</time>
      </trkpt>
      <trkpt lat="46.02865" lon="4.42429">
        <ele>739</ele>
        <time>2014-04-01T13:15:53Z</time>
      </trkpt>
      <trkpt lat="46.02882" lon="4.42443">
        <ele>739</ele>
        <time>2014-04-01T13:15:58Z</time>
      </trkpt>
      <trkpt lat="46.02899" lon="4.42456">
        <ele>740</ele>
        <time>2014-04-01T13:16:03Z</time>
      </trkpt>
      <trkpt lat="46.02915" lon="4.42468">
        <ele>740</ele>
        <time>2014-04-01T13:16:08Z</time>
      </trkpt>
      <trkpt lat="46.02933" lon="4.42477">
        <ele>740</ele>
        <time>2014-04-01T13:16:13Z</time>
      </trkpt>
      <trkpt lat="46.02952" lon="4.42485">
        <ele>739</ele>
        <time>2014-04-01T13:16:18Z</time>
      </trkpt>
      <trkpt lat="46.02969" lon="4.4249">
        <ele>739</ele>
        <time>2014-04-01T13:16:23Z</time>
      </trkpt>
      <trkpt lat="46.02992" lon="4.42499">
        <ele>737</ele>
        <time>2014-04-01T13:16:28Z</time>
      </trkpt>
      <trkpt lat="46.03019" lon="4.42519">
        <ele>736</ele>
        <time>2014-04-01T13:16:33Z</time>
      </trkpt>
      <trkpt lat="46.0305" lon="4.4255">
        <ele>734</ele>
        <time>2014-04-01T13:16:38Z</time>
      </trkpt>
      <trkpt lat="46.03072" lon="4.42583">
        <ele>731</ele>
        <time>2014-04-01T13:16:43Z</time>
      </trkpt>
      <trkpt lat="46.03096" lon="4.42619">
        <ele>729</ele>
        <time>2014-04-01T13:16:48Z</time>
      </trkpt>
      <trkpt lat="46.03125" lon="4.42656">
        <ele>728</ele>
        <time>2014-04-01T13:16:53Z</time>
      </trkpt>
      <trkpt lat="46.03153" lon="4.42691">
        <ele>727</ele>
        <time>2014-04-01T13:16:58Z</time>
      </trkpt>
      <trkpt lat="46.03175" lon="4.42731">
        <ele>725</ele>
        <time>2014-04-01T13:17:03Z</time>
      </trkpt>
      <trkpt lat="46.03194" lon="4.42769">
        <ele>723</ele>
        <time>2014-04-01T13:17:08Z</time>
      </trkpt>
      <trkpt lat="46.03215" lon="4.42803">
        <ele>722</ele>
        <time>2014-04-01T13:17:13Z</time>
      </trkpt>
      <trkpt lat="46.03245" lon="4.42843">
        <ele>720</ele>
        <time>2014-04-01T13:17:18Z</time>
      </trkpt>
      <trkpt lat="46.03276" lon="4.42885">
        <ele>719</ele>
        <time>2014-04-01T13:17:23Z</time>
      </trkpt>
      <trkpt lat="46.03297" lon="4.42906">
        <ele>717</ele>
        <time>2014-04-01T13:17:28Z</time>
      </trkpt>
      <trkpt lat="46.03319" lon="4.42929">
        <ele>716</ele>
        <time>2014-04-01T13:17:33Z</time>
      </trkpt>
      <trkpt lat="46.03333" lon="4.42952">
        <ele>716</ele>
        <time>2014-04-01T13:17:38Z</time>
      </trkpt>
      <trkpt lat="46.03336" lon="4.42959">
        <ele>716</ele>
        <time>2014-04-01T13:17:43Z</time>
      </trkpt>
      <trkpt lat="46.03336" lon="4.42959">
        <ele>716</ele>
        <time>2014-04-01T13:18:02Z</time>
      </trkpt>
      <trkpt lat="46.03336" lon="4.42959">
        <ele>716</ele>
        <time>2014-04-01T13:18:17Z</time>
      </trkpt>
      <trkpt lat="46.03336" lon="4.42959">
        <ele>716</ele>
        <time>2014-04-01T13:18:32Z</time>
      </trkpt>
      <trkpt lat="46.03336" lon="4.42959">
        <ele>716</ele>
        <time>2014-04-01T13:18:47Z</time>
      </trkpt>
      <trkpt lat="46.03336" lon="4.42959">
        <ele>716</ele>
        <time>2014-04-01T13:19:02Z</time>
      </trkpt>
      <trkpt lat="46.03352" lon="4.42968">
        <ele>715</ele>
        <time>2014-04-01T13:19:14Z</time>
      </trkpt>
      <trkpt lat="46.03366" lon="4.42969">
        <ele>715</ele>
        <time>2014-04-01T13:19:19Z</time>
      </trkpt>
      <trkpt lat="46.0337" lon="4.42969">
        <ele>715</ele>
        <time>2014-04-01T13:19:47Z</time>
      </trkpt>
      <trkpt lat="46.0337" lon="4.42969">
        <ele>715</ele>
        <time>2014-04-01T13:20:02Z</time>
      </trkpt>
      <trkpt lat="46.0337" lon="4.42969">
        <ele>715</ele>
        <time>2014-04-01T13:20:17Z</time>
      </trkpt>
      <trkpt lat="46.0337" lon="4.42969">
        <ele>715</ele>
        <time>2014-04-01T13:20:32Z</time>
      </trkpt>
      <trkpt lat="46.03343" lon="4.42954">
        <ele>715</ele>
        <time>2014-04-01T13:20:42Z</time>
      </trkpt>
      <trkpt lat="46.0334" lon="4.42941">
        <ele>715</ele>
        <time>2014-04-01T13:20:47Z</time>
      </trkpt>
      <trkpt lat="46.03335" lon="4.4292">
        <ele>715</ele>
        <time>2014-04-01T13:20:52Z</time>
      </trkpt>
      <trkpt lat="46.03334" lon="4.42898">
        <ele>715</ele>
        <time>2014-04-01T13:20:57Z</time>
      </trkpt>
      <trkpt lat="46.03339" lon="4.42863">
        <ele>716</ele>
        <time>2014-04-01T13:21:02Z</time>
      </trkpt>
      <trkpt lat="46.03352" lon="4.428">
        <ele>717</ele>
        <time>2014-04-01T13:21:07Z</time>
      </trkpt>
      <trkpt lat="46.03356" lon="4.42737">
        <ele>720</ele>
        <time>2014-04-01T13:21:12Z</time>
      </trkpt>
      <trkpt lat="46.03354" lon="4.42677">
        <ele>719</ele>
        <time>2014-04-01T13:21:17Z</time>
      </trkpt>
      <trkpt lat="46.03347" lon="4.42624">
        <ele>716</ele>
        <time>2014-04-01T13:21:22Z</time>
      </trkpt>
      <trkpt lat="46.03338" lon="4.4257">
        <ele>713</ele>
        <time>2014-04-01T13:21:27Z</time>
      </trkpt>
      <trkpt lat="46.03331" lon="4.42512">
        <ele>709</ele>
        <time>2014-04-01T13:21:32Z</time>
      </trkpt>
      <trkpt lat="46.03325" lon="4.42452">
        <ele>705</ele>
        <time>2014-04-01T13:21:37Z</time>
      </trkpt>
      <trkpt lat="46.0332" lon="4.42395">
        <ele>702</ele>
        <time>2014-04-01T13:21:42Z</time>
      </trkpt>
      <trkpt lat="46.03314" lon="4.42319">
        <ele>699</ele>
        <time>2014-04-01T13:21:47Z</time>
      </trkpt>
      <trkpt lat="46.03299" lon="4.42249">
        <ele>703</ele>
        <time>2014-04-01T13:21:52Z</time>
      </trkpt>
      <trkpt lat="46.03288" lon="4.42177">
        <ele>702</ele>
        <time>2014-04-01T13:21:57Z</time>
      </trkpt>
      <trkpt lat="46.03276" lon="4.42114">
        <ele>700</ele>
        <time>2014-04-01T13:22:02Z</time>
      </trkpt>
      <trkpt lat="46.03259" lon="4.42063">
        <ele>699</ele>
        <time>2014-04-01T13:22:07Z</time>
      </trkpt>
      <trkpt lat="46.0324" lon="4.42025">
        <ele>697</ele>
        <time>2014-04-01T13:22:13Z</time>
      </trkpt>
      <trkpt lat="46.03228" lon="4.42018">
        <ele>698</ele>
        <time>2014-04-01T13:22:18Z</time>
      </trkpt>
      <trkpt lat="46.03225" lon="4.42016">
        <ele>699</ele>
        <time>2014-04-01T13:22:47Z</time>
      </trkpt>
      <trkpt lat="46.03195" lon="4.41988">
        <ele>700</ele>
        <time>2014-04-01T13:22:48Z</time>
      </trkpt>
      <trkpt lat="46.03191" lon="4.41983">
        <ele>699</ele>
        <time>2014-04-01T13:22:53Z</time>
      </trkpt>
      <trkpt lat="46.03168" lon="4.41976">
        <ele>702</ele>
        <time>2014-04-01T13:22:58Z</time>
      </trkpt>
      <trkpt lat="46.03148" lon="4.41965">
        <ele>703</ele>
        <time>2014-04-01T13:23:03Z</time>
      </trkpt>
      <trkpt lat="46.03132" lon="4.4195">
        <ele>703</ele>
        <time>2014-04-01T13:23:08Z</time>
      </trkpt>
      <trkpt lat="46.03117" lon="4.41929">
        <ele>700</ele>
        <time>2014-04-01T13:23:13Z</time>
      </trkpt>
      <trkpt lat="46.03102" lon="4.41909">
        <ele>699</ele>
        <time>2014-04-01T13:23:18Z</time>
      </trkpt>
      <trkpt lat="46.03088" lon="4.41893">
        <ele>698</ele>
        <time>2014-04-01T13:23:23Z</time>
      </trkpt>
      <trkpt lat="46.03075" lon="4.4188">
        <ele>697</ele>
        <time>2014-04-01T13:23:28Z</time>
      </trkpt>
      <trkpt lat="46.03061" lon="4.4187">
        <ele>696</ele>
        <time>2014-04-01T13:23:33Z</time>
      </trkpt>
      <trkpt lat="46.03056" lon="4.41867">
        <ele>696</ele>
        <time>2014-04-01T13:23:38Z</time>
      </trkpt>
      <trkpt lat="46.03056" lon="4.41867">
        <ele>696</ele>
        <time>2014-04-01T13:24:02Z</time>
      </trkpt>
      <trkpt lat="46.03056" lon="4.41867">
        <ele>696</ele>
        <time>2014-04-01T13:24:17Z</time>
      </trkpt>
      <trkpt lat="46.03056" lon="4.41867">
        <ele>696</ele>
        <time>2014-04-01T13:24:47Z</time>
      </trkpt>
      <trkpt lat="46.03056" lon="4.41867">
        <ele>696</ele>
        <time>2014-04-01T13:25:02Z</time>
      </trkpt>
      <trkpt lat="46.03056" lon="4.41867">
        <ele>696</ele>
        <time>2014-04-01T13:25:17Z</time>
      </trkpt>
      <trkpt lat="46.0305" lon="4.41865">
        <ele>695</ele>
        <time>2014-04-01T13:25:32Z</time>
      </trkpt>
      <trkpt lat="46.03031" lon="4.41865">
        <ele>695</ele>
        <time>2014-04-01T13:25:37Z</time>
      </trkpt>
      <trkpt lat="46.03009" lon="4.4187">
        <ele>695</ele>
        <time>2014-04-01T13:25:42Z</time>
      </trkpt>
      <trkpt lat="46.02979" lon="4.41877">
        <ele>694</ele>
        <time>2014-04-01T13:25:47Z</time>
      </trkpt>
      <trkpt lat="46.02947" lon="4.41898">
        <ele>693</ele>
        <time>2014-04-01T13:25:52Z</time>
      </trkpt>
      <trkpt lat="46.02911" lon="4.41927">
        <ele>693</ele>
        <time>2014-04-01T13:25:57Z</time>
      </trkpt>
      <trkpt lat="46.02871" lon="4.4195">
        <ele>692</ele>
        <time>2014-04-01T13:26:02Z</time>
      </trkpt>
      <trkpt lat="46.0282" lon="4.41953">
        <ele>688</ele>
        <time>2014-04-01T13:26:07Z</time>
      </trkpt>
      <trkpt lat="46.02769" lon="4.4195">
        <ele>685</ele>
        <time>2014-04-01T13:26:12Z</time>
      </trkpt>
      <trkpt lat="46.02724" lon="4.41946">
        <ele>684</ele>
        <time>2014-04-01T13:26:17Z</time>
      </trkpt>
      <trkpt lat="46.02686" lon="4.41944">
        <ele>685</ele>
        <time>2014-04-01T13:26:22Z</time>
      </trkpt>
      <trkpt lat="46.02652" lon="4.41922">
        <ele>683</ele>
        <time>2014-04-01T13:26:27Z</time>
      </trkpt>
      <trkpt lat="46.02622" lon="4.41881">
        <ele>679</ele>
        <time>2014-04-01T13:26:32Z</time>
      </trkpt>
      <trkpt lat="46.02582" lon="4.41851">
        <ele>678</ele>
        <time>2014-04-01T13:26:37Z</time>
      </trkpt>
      <trkpt lat="46.02552" lon="4.4184">
        <ele>681</ele>
        <time>2014-04-01T13:26:42Z</time>
      </trkpt>
      <trkpt lat="46.0254" lon="4.41832">
        <ele>681</ele>
        <time>2014-04-01T13:26:47Z</time>
      </trkpt>
      <trkpt lat="46.02538" lon="4.4183">
        <ele>681</ele>
        <time>2014-04-01T13:27:02Z</time>
      </trkpt>
      <trkpt lat="46.02537" lon="4.41826">
        <ele>681</ele>
        <time>2014-04-01T13:27:10Z</time>
      </trkpt>
      <trkpt lat="46.02528" lon="4.41819">
        <ele>682</ele>
        <time>2014-04-01T13:27:15Z</time>
      </trkpt>
      <trkpt lat="46.02518" lon="4.41809">
        <ele>682</ele>
        <time>2014-04-01T13:27:20Z</time>
      </trkpt>
      <trkpt lat="46.02506" lon="4.41797">
        <ele>683</ele>
        <time>2014-04-01T13:27:25Z</time>
      </trkpt>
      <trkpt lat="46.02494" lon="4.41786">
        <ele>685</ele>
        <time>2014-04-01T13:27:30Z</time>
      </trkpt>
      <trkpt lat="46.02482" lon="4.41776">
        <ele>688</ele>
        <time>2014-04-01T13:27:35Z</time>
      </trkpt>
      <trkpt lat="46.02471" lon="4.41765">
        <ele>689</ele>
        <time>2014-04-01T13:27:40Z</time>
      </trkpt>
      <trkpt lat="46.02461" lon="4.41756">
        <ele>691</ele>
        <time>2014-04-01T13:27:45Z</time>
      </trkpt>
      <trkpt lat="46.02455" lon="4.41742">
        <ele>691</ele>
        <time>2014-04-01T13:27:50Z</time>
      </trkpt>
      <trkpt lat="46.02451" lon="4.4171">
        <ele>688</ele>
        <time>2014-04-01T13:27:55Z</time>
      </trkpt>
      <trkpt lat="46.02441" lon="4.41662">
        <ele>685</ele>
        <time>2014-04-01T13:28:00Z</time>
      </trkpt>
      <trkpt lat="46.02426" lon="4.41613">
        <ele>681</ele>
        <time>2014-04-01T13:28:05Z</time>
      </trkpt>
      <trkpt lat="46.02412" lon="4.41561">
        <ele>678</ele>
        <time>2014-04-01T13:28:10Z</time>
      </trkpt>
      <trkpt lat="46.02398" lon="4.41517">
        <ele>675</ele>
        <time>2014-04-01T13:28:15Z</time>
      </trkpt>
      <trkpt lat="46.02376" lon="4.415">
        <ele>676</ele>
        <time>2014-04-01T13:28:20Z</time>
      </trkpt>
      <trkpt lat="46.02354" lon="4.41496">
        <ele>678</ele>
        <time>2014-04-01T13:28:25Z</time>
      </trkpt>
      <trkpt lat="46.02352" lon="4.41496">
        <ele>678</ele>
        <time>2014-04-01T13:28:47Z</time>
      </trkpt>
      <trkpt lat="46.0235" lon="4.41495">
        <ele>679</ele>
        <time>2014-04-01T13:28:52Z</time>
      </trkpt>
      <trkpt lat="46.02344" lon="4.41489">
        <ele>679</ele>
        <time>2014-04-01T13:28:57Z</time>
      </trkpt>
      <trkpt lat="46.02344" lon="4.41489">
        <ele>679</ele>
        <time>2014-04-01T13:29:17Z</time>
      </trkpt>
      <trkpt lat="46.02344" lon="4.41489">
        <ele>679</ele>
        <time>2014-04-01T13:29:32Z</time>
      </trkpt>
      <trkpt lat="46.0235" lon="4.41492">
        <ele>678</ele>
        <time>2014-04-01T13:29:42Z</time>
      </trkpt>
      <trkpt lat="46.02371" lon="4.41499">
        <ele>676</ele>
        <time>2014-04-01T13:29:47Z</time>
      </trkpt>
      <trkpt lat="46.02391" lon="4.41513">
        <ele>675</ele>
        <time>2014-04-01T13:29:52Z</time>
      </trkpt>
      <trkpt lat="46.02405" lon="4.41538">
        <ele>676</ele>
        <time>2014-04-01T13:29:57Z</time>
      </trkpt>
      <trkpt lat="46.02411" lon="4.41565">
        <ele>678</ele>
        <time>2014-04-01T13:30:02Z</time>
      </trkpt>
      <trkpt lat="46.02418" lon="4.41585">
        <ele>679</ele>
        <time>2014-04-01T13:30:07Z</time>
      </trkpt>
      <trkpt lat="46.02424" lon="4.41606">
        <ele>681</ele>
        <time>2014-04-01T13:30:12Z</time>
      </trkpt>
      <trkpt lat="46.0243" lon="4.41626">
        <ele>682</ele>
        <time>2014-04-01T13:30:17Z</time>
      </trkpt>
      <trkpt lat="46.02437" lon="4.41645">
        <ele>683</ele>
        <time>2014-04-01T13:30:22Z</time>
      </trkpt>
      <trkpt lat="46.02442" lon="4.41663">
        <ele>684</ele>
        <time>2014-04-01T13:30:27Z</time>
      </trkpt>
      <trkpt lat="46.02447" lon="4.4168">
        <ele>686</ele>
        <time>2014-04-01T13:30:32Z</time>
      </trkpt>
      <trkpt lat="46.02451" lon="4.41698">
        <ele>687</ele>
        <time>2014-04-01T13:30:37Z</time>
      </trkpt>
      <trkpt lat="46.02454" lon="4.41717">
        <ele>688</ele>
        <time>2014-04-01T13:30:42Z</time>
      </trkpt>
      <trkpt lat="46.02455" lon="4.41734">
        <ele>690</ele>
        <time>2014-04-01T13:30:47Z</time>
      </trkpt>
      <trkpt lat="46.02454" lon="4.41744">
        <ele>691</ele>
        <time>2014-04-01T13:30:52Z</time>
      </trkpt>
      <trkpt lat="46.02447" lon="4.41746">
        <ele>693</ele>
        <time>2014-04-01T13:30:57Z</time>
      </trkpt>
      <trkpt lat="46.0244" lon="4.4174">
        <ele>694</ele>
        <time>2014-04-01T13:31:02Z</time>
      </trkpt>
      <trkpt lat="46.02434" lon="4.41735">
        <ele>694</ele>
        <time>2014-04-01T13:31:07Z</time>
      </trkpt>
      <trkpt lat="46.02433" lon="4.41735">
        <ele>694</ele>
        <time>2014-04-01T13:31:32Z</time>
      </trkpt>
      <trkpt lat="46.02399" lon="4.41717">
        <ele>698</ele>
        <time>2014-04-01T13:31:38Z</time>
      </trkpt>
      <trkpt lat="46.02396" lon="4.41717">
        <ele>698</ele>
        <time>2014-04-01T13:32:02Z</time>
      </trkpt>
      <trkpt lat="46.02361" lon="4.41704">
        <ele>701</ele>
        <time>2014-04-01T13:32:10Z</time>
      </trkpt>
      <trkpt lat="46.02353" lon="4.41705">
        <ele>701</ele>
        <time>2014-04-01T13:32:15Z</time>
      </trkpt>
      <trkpt lat="46.02345" lon="4.41707">
        <ele>702</ele>
        <time>2014-04-01T13:32:20Z</time>
      </trkpt>
      <trkpt lat="46.02338" lon="4.41709">
        <ele>703</ele>
        <time>2014-04-01T13:32:25Z</time>
      </trkpt>
      <trkpt lat="46.0233" lon="4.41712">
        <ele>704</ele>
        <time>2014-04-01T13:32:30Z</time>
      </trkpt>
      <trkpt lat="46.02324" lon="4.41713">
        <ele>705</ele>
        <time>2014-04-01T13:32:35Z</time>
      </trkpt>
      <trkpt lat="46.02316" lon="4.41718">
        <ele>706</ele>
        <time>2014-04-01T13:32:40Z</time>
      </trkpt>
      <trkpt lat="46.02307" lon="4.41722">
        <ele>707</ele>
        <time>2014-04-01T13:32:45Z</time>
      </trkpt>
      <trkpt lat="46.023" lon="4.41727">
        <ele>708</ele>
        <time>2014-04-01T13:32:50Z</time>
      </trkpt>
      <trkpt lat="46.02295" lon="4.41731">
        <ele>708</ele>
        <time>2014-04-01T13:32:55Z</time>
      </trkpt>
      <trkpt lat="46.02287" lon="4.41735">
        <ele>709</ele>
        <time>2014-04-01T13:33:00Z</time>
      </trkpt>
      <trkpt lat="46.02279" lon="4.4174">
        <ele>710</ele>
        <time>2014-04-01T13:33:05Z</time>
      </trkpt>
      <trkpt lat="46.02272" lon="4.41744">
        <ele>710</ele>
        <time>2014-04-01T13:33:10Z</time>
      </trkpt>
      <trkpt lat="46.02265" lon="4.41747">
        <ele>711</ele>
        <time>2014-04-01T13:33:15Z</time>
      </trkpt>
      <trkpt lat="46.02258" lon="4.4175">
        <ele>711</ele>
        <time>2014-04-01T13:33:20Z</time>
      </trkpt>
      <trkpt lat="46.02251" lon="4.41753">
        <ele>711</ele>
        <time>2014-04-01T13:33:25Z</time>
      </trkpt>
      <trkpt lat="46.02245" lon="4.41755">
        <ele>712</ele>
        <time>2014-04-01T13:33:30Z</time>
      </trkpt>
      <trkpt lat="46.02237" lon="4.41757">
        <ele>712</ele>
        <time>2014-04-01T13:33:35Z</time>
      </trkpt>
      <trkpt lat="46.02225" lon="4.41763">
        <ele>714</ele>
        <time>2014-04-01T13:33:44Z</time>
      </trkpt>
      <trkpt lat="46.02213" lon="4.41776">
        <ele>716</ele>
        <time>2014-04-01T13:33:57Z</time>
      </trkpt>
      <trkpt lat="46.0221" lon="4.41779">
        <ele>716</ele>
        <time>2014-04-01T13:34:17Z</time>
      </trkpt>
      <trkpt lat="46.02191" lon="4.41799">
        <ele>720</ele>
        <time>2014-04-01T13:34:19Z</time>
      </trkpt>
      <trkpt lat="46.02183" lon="4.41799">
        <ele>720</ele>
        <time>2014-04-01T13:34:24Z</time>
      </trkpt>
      <trkpt lat="46.02173" lon="4.41799">
        <ele>720</ele>
        <time>2014-04-01T13:34:29Z</time>
      </trkpt>
      <trkpt lat="46.02165" lon="4.41796">
        <ele>721</ele>
        <time>2014-04-01T13:34:34Z</time>
      </trkpt>
      <trkpt lat="46.02155" lon="4.41796">
        <ele>721</ele>
        <time>2014-04-01T13:34:39Z</time>
      </trkpt>
      <trkpt lat="46.02147" lon="4.41795">
        <ele>722</ele>
        <time>2014-04-01T13:34:44Z</time>
      </trkpt>
      <trkpt lat="46.02139" lon="4.41794">
        <ele>722</ele>
        <time>2014-04-01T13:34:49Z</time>
      </trkpt>
      <trkpt lat="46.02132" lon="4.41795">
        <ele>722</ele>
        <time>2014-04-01T13:34:54Z</time>
      </trkpt>
      <trkpt lat="46.02124" lon="4.41796">
        <ele>723</ele>
        <time>2014-04-01T13:34:59Z</time>
      </trkpt>
      <trkpt lat="46.02117" lon="4.418">
        <ele>724</ele>
        <time>2014-04-01T13:35:04Z</time>
      </trkpt>
      <trkpt lat="46.0211" lon="4.41803">
        <ele>724</ele>
        <time>2014-04-01T13:35:09Z</time>
      </trkpt>
      <trkpt lat="46.02102" lon="4.41809">
        <ele>725</ele>
        <time>2014-04-01T13:35:14Z</time>
      </trkpt>
      <trkpt lat="46.02095" lon="4.41814">
        <ele>726</ele>
        <time>2014-04-01T13:35:19Z</time>
      </trkpt>
      <trkpt lat="46.02089" lon="4.41816">
        <ele>726</ele>
        <time>2014-04-01T13:35:24Z</time>
      </trkpt>
      <trkpt lat="46.02081" lon="4.41818">
        <ele>726</ele>
        <time>2014-04-01T13:35:29Z</time>
      </trkpt>
      <trkpt lat="46.02074" lon="4.41821">
        <ele>726</ele>
        <time>2014-04-01T13:35:34Z</time>
      </trkpt>
      <trkpt lat="46.02067" lon="4.41823">
        <ele>727</ele>
        <time>2014-04-01T13:35:39Z</time>
      </trkpt>
      <trkpt lat="46.02061" lon="4.41827">
        <ele>727</ele>
        <time>2014-04-01T13:35:44Z</time>
      </trkpt>
      <trkpt lat="46.02055" lon="4.41831">
        <ele>728</ele>
        <time>2014-04-01T13:35:49Z</time>
      </trkpt>
      <trkpt lat="46.02048" lon="4.41833">
        <ele>728</ele>
        <time>2014-04-01T13:35:54Z</time>
      </trkpt>
      <trkpt lat="46.02048" lon="4.41833">
        <ele>728</ele>
        <time>2014-04-01T13:36:17Z</time>
      </trkpt>
      <trkpt lat="46.02048" lon="4.41833">
        <ele>728</ele>
        <time>2014-04-01T13:36:47Z</time>
      </trkpt>
      <trkpt lat="46.02048" lon="4.41833">
        <ele>728</ele>
        <time>2014-04-01T13:37:02Z</time>
      </trkpt>
      <trkpt lat="46.02048" lon="4.41833">
        <ele>728</ele>
        <time>2014-04-01T13:37:17Z</time>
      </trkpt>
      <trkpt lat="46.02045" lon="4.41826">
        <ele>727</ele>
        <time>2014-04-01T13:37:21Z</time>
      </trkpt>
      <trkpt lat="46.02049" lon="4.41795">
        <ele>724</ele>
        <time>2014-04-01T13:37:26Z</time>
      </trkpt>
      <trkpt lat="46.02047" lon="4.41758">
        <ele>722</ele>
        <time>2014-04-01T13:37:31Z</time>
      </trkpt>
      <trkpt lat="46.02042" lon="4.4172">
        <ele>721</ele>
        <time>2014-04-01T13:37:36Z</time>
      </trkpt>
      <trkpt lat="46.02039" lon="4.41682">
        <ele>722</ele>
        <time>2014-04-01T13:37:41Z</time>
      </trkpt>
      <trkpt lat="46.02036" lon="4.41655">
        <ele>723</ele>
        <time>2014-04-01T13:37:46Z</time>
      </trkpt>
      <trkpt lat="46.02036" lon="4.41638">
        <ele>725</ele>
        <time>2014-04-01T13:37:51Z</time>
      </trkpt>
      <trkpt lat="46.02036" lon="4.41614">
        <ele>729</ele>
        <time>2014-04-01T13:37:56Z</time>
      </trkpt>
      <trkpt lat="46.02034" lon="4.41588">
        <ele>732</ele>
        <time>2014-04-01T13:38:01Z</time>
      </trkpt>
      <trkpt lat="46.02035" lon="4.41565">
        <ele>735</ele>
        <time>2014-04-01T13:38:06Z</time>
      </trkpt>
      <trkpt lat="46.02033" lon="4.4155">
        <ele>736</ele>
        <time>2014-04-01T13:38:11Z</time>
      </trkpt>
      <trkpt lat="46.02029" lon="4.41538">
        <ele>737</ele>
        <time>2014-04-01T13:38:16Z</time>
      </trkpt>
      <trkpt lat="46.02025" lon="4.41525">
        <ele>737</ele>
        <time>2014-04-01T13:38:21Z</time>
      </trkpt>
      <trkpt lat="46.02024" lon="4.41512">
        <ele>738</ele>
        <time>2014-04-01T13:38:26Z</time>
      </trkpt>
      <trkpt lat="46.02016" lon="4.41496">
        <ele>736</ele>
        <time>2014-04-01T13:38:31Z</time>
      </trkpt>
      <trkpt lat="46.02007" lon="4.41481">
        <ele>734</ele>
        <time>2014-04-01T13:38:36Z</time>
      </trkpt>
      <trkpt lat="46.01994" lon="4.4145">
        <ele>732</ele>
        <time>2014-04-01T13:38:41Z</time>
      </trkpt>
      <trkpt lat="46.01981" lon="4.41416">
        <ele>730</ele>
        <time>2014-04-01T13:38:46Z</time>
      </trkpt>
      <trkpt lat="46.01979" lon="4.41388">
        <ele>730</ele>
        <time>2014-04-01T13:38:51Z</time>
      </trkpt>
      <trkpt lat="46.0196" lon="4.41356">
        <ele>726</ele>
        <time>2014-04-01T13:38:56Z</time>
      </trkpt>
      <trkpt lat="46.01951" lon="4.41332">
        <ele>724</ele>
        <time>2014-04-01T13:39:01Z</time>
      </trkpt>
      <trkpt lat="46.01948" lon="4.41323">
        <ele>724</ele>
        <time>2014-04-01T13:39:06Z</time>
      </trkpt>
      <trkpt lat="46.01945" lon="4.41316">
        <ele>723</ele>
        <time>2014-04-01T13:39:13Z</time>
      </trkpt>
      <trkpt lat="46.0194" lon="4.413">
        <ele>721</ele>
        <time>2014-04-01T13:39:18Z</time>
      </trkpt>
      <trkpt lat="46.01939" lon="4.41292">
        <ele>720</ele>
        <time>2014-04-01T13:39:23Z</time>
      </trkpt>
      <trkpt lat="46.01928" lon="4.41277">
        <ele>717</ele>
        <time>2014-04-01T13:39:28Z</time>
      </trkpt>
      <trkpt lat="46.01915" lon="4.41274">
        <ele>715</ele>
        <time>2014-04-01T13:39:33Z</time>
      </trkpt>
      <trkpt lat="46.01904" lon="4.41267">
        <ele>713</ele>
        <time>2014-04-01T13:39:38Z</time>
      </trkpt>
      <trkpt lat="46.01898" lon="4.41259">
        <ele>711</ele>
        <time>2014-04-01T13:39:43Z</time>
      </trkpt>
      <trkpt lat="46.0189" lon="4.41246">
        <ele>709</ele>
        <time>2014-04-01T13:39:49Z</time>
      </trkpt>
      <trkpt lat="46.0188" lon="4.41235">
        <ele>706</ele>
        <time>2014-04-01T13:39:54Z</time>
      </trkpt>
      <trkpt lat="46.01866" lon="4.41219">
        <ele>702</ele>
        <time>2014-04-01T13:39:59Z</time>
      </trkpt>
      <trkpt lat="46.01849" lon="4.412">
        <ele>698</ele>
        <time>2014-04-01T13:40:04Z</time>
      </trkpt>
      <trkpt lat="46.01839" lon="4.41173">
        <ele>697</ele>
        <time>2014-04-01T13:40:09Z</time>
      </trkpt>
      <trkpt lat="46.01825" lon="4.41141">
        <ele>695</ele>
        <time>2014-04-01T13:40:14Z</time>
      </trkpt>
      <trkpt lat="46.01814" lon="4.41113">
        <ele>692</ele>
        <time>2014-04-01T13:40:19Z</time>
      </trkpt>
      <trkpt lat="46.01804" lon="4.41095">
        <ele>690</ele>
        <time>2014-04-01T13:40:24Z</time>
      </trkpt>
      <trkpt lat="46.01792" lon="4.41086">
        <ele>687</ele>
        <time>2014-04-01T13:40:29Z</time>
      </trkpt>
      <trkpt lat="46.01773" lon="4.4106">
        <ele>684</ele>
        <time>2014-04-01T13:40:34Z</time>
      </trkpt>
      <trkpt lat="46.01757" lon="4.41018">
        <ele>683</ele>
        <time>2014-04-01T13:40:39Z</time>
      </trkpt>
      <trkpt lat="46.01745" lon="4.40978">
        <ele>683</ele>
        <time>2014-04-01T13:40:44Z</time>
      </trkpt>
      <trkpt lat="46.01733" lon="4.40947">
        <ele>683</ele>
        <time>2014-04-01T13:40:49Z</time>
      </trkpt>
      <trkpt lat="46.01722" lon="4.40922">
        <ele>683</ele>
        <time>2014-04-01T13:40:54Z</time>
      </trkpt>
      <trkpt lat="46.01712" lon="4.40896">
        <ele>685</ele>
        <time>2014-04-01T13:40:59Z</time>
      </trkpt>
      <trkpt lat="46.017" lon="4.40873">
        <ele>687</ele>
        <time>2014-04-01T13:41:04Z</time>
      </trkpt>
      <trkpt lat="46.01688" lon="4.4085">
        <ele>688</ele>
        <time>2014-04-01T13:41:09Z</time>
      </trkpt>
      <trkpt lat="46.01682" lon="4.40827">
        <ele>690</ele>
        <time>2014-04-01T13:41:14Z</time>
      </trkpt>
      <trkpt lat="46.01674" lon="4.40803">
        <ele>690</ele>
        <time>2014-04-01T13:41:19Z</time>
      </trkpt>
      <trkpt lat="46.01665" lon="4.40778">
        <ele>689</ele>
        <time>2014-04-01T13:41:24Z</time>
      </trkpt>
      <trkpt lat="46.01654" lon="4.40753">
        <ele>689</ele>
        <time>2014-04-01T13:41:29Z</time>
      </trkpt>
      <trkpt lat="46.0164" lon="4.40725">
        <ele>688</ele>
        <time>2014-04-01T13:41:34Z</time>
      </trkpt>
      <trkpt lat="46.01623" lon="4.40687">
        <ele>687</ele>
        <time>2014-04-01T13:41:39Z</time>
      </trkpt>
      <trkpt lat="46.01603" lon="4.40666">
        <ele>684</ele>
        <time>2014-04-01T13:41:44Z</time>
      </trkpt>
      <trkpt lat="46.0158" lon="4.40646">
        <ele>681</ele>
        <time>2014-04-01T13:41:49Z</time>
      </trkpt>
      <trkpt lat="46.01556" lon="4.40615">
        <ele>680</ele>
        <time>2014-04-01T13:41:54Z</time>
      </trkpt>
      <trkpt lat="46.01537" lon="4.40588">
        <ele>677</ele>
        <time>2014-04-01T13:41:59Z</time>
      </trkpt>
      <trkpt lat="46.01521" lon="4.40558">
        <ele>676</ele>
        <time>2014-04-01T13:42:04Z</time>
      </trkpt>
      <trkpt lat="46.01499" lon="4.40527">
        <ele>675</ele>
        <time>2014-04-01T13:42:09Z</time>
      </trkpt>
      <trkpt lat="46.01483" lon="4.405">
        <ele>674</ele>
        <time>2014-04-01T13:42:14Z</time>
      </trkpt>
      <trkpt lat="46.01465" lon="4.40475">
        <ele>672</ele>
        <time>2014-04-01T13:42:19Z</time>
      </trkpt>
      <trkpt lat="46.01446" lon="4.40438">
        <ele>671</ele>
        <time>2014-04-01T13:42:24Z</time>
      </trkpt>
      <trkpt lat="46.01429" lon="4.4041">
        <ele>670</ele>
        <time>2014-04-01T13:42:29Z</time>
      </trkpt>
      <trkpt lat="46.01417" lon="4.40389">
        <ele>668</ele>
        <time>2014-04-01T13:42:34Z</time>
      </trkpt>
      <trkpt lat="46.01405" lon="4.40364">
        <ele>667</ele>
        <time>2014-04-01T13:42:39Z</time>
      </trkpt>
      <trkpt lat="46.01392" lon="4.40335">
        <ele>665</ele>
        <time>2014-04-01T13:42:44Z</time>
      </trkpt>
      <trkpt lat="46.01379" lon="4.40307">
        <ele>664</ele>
        <time>2014-04-01T13:42:49Z</time>
      </trkpt>
      <trkpt lat="46.01367" lon="4.40279">
        <ele>663</ele>
        <time>2014-04-01T13:42:54Z</time>
      </trkpt>
      <trkpt lat="46.01354" lon="4.40249">
        <ele>661</ele>
        <time>2014-04-01T13:42:59Z</time>
      </trkpt>
      <trkpt lat="46.0135" lon="4.40231">
        <ele>660</ele>
        <time>2014-04-01T13:43:04Z</time>
      </trkpt>
      <trkpt lat="46.0135" lon="4.4023">
        <ele>660</ele>
        <time>2014-04-01T13:43:32Z</time>
      </trkpt>
      <trkpt lat="46.0135" lon="4.4023">
        <ele>660</ele>
        <time>2014-04-01T13:44:02Z</time>
      </trkpt>
      <trkpt lat="46.0135" lon="4.4023">
        <ele>660</ele>
        <time>2014-04-01T13:44:17Z</time>
      </trkpt>
      <trkpt lat="46.01347" lon="4.40222">
        <ele>660</ele>
        <time>2014-04-01T13:44:27Z</time>
      </trkpt>
      <trkpt lat="46.0134" lon="4.40199">
        <ele>659</ele>
        <time>2014-04-01T13:44:33Z</time>
      </trkpt>
      <trkpt lat="46.01333" lon="4.40172">
        <ele>656</ele>
        <time>2014-04-01T13:44:38Z</time>
      </trkpt>
      <trkpt lat="46.01328" lon="4.40143">
        <ele>655</ele>
        <time>2014-04-01T13:44:43Z</time>
      </trkpt>
      <trkpt lat="46.01326" lon="4.40119">
        <ele>653</ele>
        <time>2014-04-01T13:44:48Z</time>
      </trkpt>
      <trkpt lat="46.01327" lon="4.40091">
        <ele>651</ele>
        <time>2014-04-01T13:44:53Z</time>
      </trkpt>
      <trkpt lat="46.0133" lon="4.40061">
        <ele>650</ele>
        <time>2014-04-01T13:44:58Z</time>
      </trkpt>
      <trkpt lat="46.01328" lon="4.40023">
        <ele>648</ele>
        <time>2014-04-01T13:45:03Z</time>
      </trkpt>
      <trkpt lat="46.01316" lon="4.39987">
        <ele>646</ele>
        <time>2014-04-01T13:45:08Z</time>
      </trkpt>
      <trkpt lat="46.01293" lon="4.39962">
        <ele>644</ele>
        <time>2014-04-01T13:45:13Z</time>
      </trkpt>
      <trkpt lat="46.01269" lon="4.39936">
        <ele>641</ele>
        <time>2014-04-01T13:45:18Z</time>
      </trkpt>
      <trkpt lat="46.01251" lon="4.39912">
        <ele>639</ele>
        <time>2014-04-01T13:45:23Z</time>
      </trkpt>
      <trkpt lat="46.01233" lon="4.39897">
        <ele>637</ele>
        <time>2014-04-01T13:45:28Z</time>
      </trkpt>
      <trkpt lat="46.01216" lon="4.39878">
        <ele>635</ele>
        <time>2014-04-01T13:45:33Z</time>
      </trkpt>
      <trkpt lat="46.01204" lon="4.39863">
        <ele>633</ele>
        <time>2014-04-01T13:45:38Z</time>
      </trkpt>
      <trkpt lat="46.01192" lon="4.3985">
        <ele>630</ele>
        <time>2014-04-01T13:45:43Z</time>
      </trkpt>
      <trkpt lat="46.01179" lon="4.39843">
        <ele>628</ele>
        <time>2014-04-01T13:45:48Z</time>
      </trkpt>
      <trkpt lat="46.01169" lon="4.39838">
        <ele>626</ele>
        <time>2014-04-01T13:45:53Z</time>
      </trkpt>
      <trkpt lat="46.01165" lon="4.39842">
        <ele>625</ele>
        <time>2014-04-01T13:46:04Z</time>
      </trkpt>
      <trkpt lat="46.01168" lon="4.39855">
        <ele>625</ele>
        <time>2014-04-01T13:46:09Z</time>
      </trkpt>
      <trkpt lat="46.01175" lon="4.39879">
        <ele>626</ele>
        <time>2014-04-01T13:46:14Z</time>
      </trkpt>
      <trkpt lat="46.01182" lon="4.39906">
        <ele>626</ele>
        <time>2014-04-01T13:46:19Z</time>
      </trkpt>
      <trkpt lat="46.01189" lon="4.39937">
        <ele>625</ele>
        <time>2014-04-01T13:46:24Z</time>
      </trkpt>
      <trkpt lat="46.01196" lon="4.39969">
        <ele>625</ele>
        <time>2014-04-01T13:46:29Z</time>
      </trkpt>
      <trkpt lat="46.01197" lon="4.40001">
        <ele>624</ele>
        <time>2014-04-01T13:46:34Z</time>
      </trkpt>
      <trkpt lat="46.01183" lon="4.40029">
        <ele>624</ele>
        <time>2014-04-01T13:46:39Z</time>
      </trkpt>
      <trkpt lat="46.0117" lon="4.40055">
        <ele>624</ele>
        <time>2014-04-01T13:46:44Z</time>
      </trkpt>
      <trkpt lat="46.01161" lon="4.40083">
        <ele>624</ele>
        <time>2014-04-01T13:46:49Z</time>
      </trkpt>
      <trkpt lat="46.01155" lon="4.40109">
        <ele>625</ele>
        <time>2014-04-01T13:46:54Z</time>
      </trkpt>
      <trkpt lat="46.0115" lon="4.40133">
        <ele>625</ele>
        <time>2014-04-01T13:46:59Z</time>
      </trkpt>
      <trkpt lat="46.01146" lon="4.40155">
        <ele>625</ele>
        <time>2014-04-01T13:47:04Z</time>
      </trkpt>
      <trkpt lat="46.01143" lon="4.40172">
        <ele>625</ele>
        <time>2014-04-01T13:47:09Z</time>
      </trkpt>
      <trkpt lat="46.01139" lon="4.40187">
        <ele>624</ele>
        <time>2014-04-01T13:47:14Z</time>
      </trkpt>
      <trkpt lat="46.01134" lon="4.40218">
        <ele>622</ele>
        <time>2014-04-01T13:47:19Z</time>
      </trkpt>
      <trkpt lat="46.01141" lon="4.40255">
        <ele>621</ele>
        <time>2014-04-01T13:47:24Z</time>
      </trkpt>
      <trkpt lat="46.01151" lon="4.4029">
        <ele>620</ele>
        <time>2014-04-01T13:47:29Z</time>
      </trkpt>
      <trkpt lat="46.01159" lon="4.40321">
        <ele>617</ele>
        <time>2014-04-01T13:47:34Z</time>
      </trkpt>
      <trkpt lat="46.01175" lon="4.40354">
        <ele>617</ele>
        <time>2014-04-01T13:47:39Z</time>
      </trkpt>
      <trkpt lat="46.01196" lon="4.40385">
        <ele>617</ele>
        <time>2014-04-01T13:47:44Z</time>
      </trkpt>
      <trkpt lat="46.01218" lon="4.40408">
        <ele>619</ele>
        <time>2014-04-01T13:47:49Z</time>
      </trkpt>
      <trkpt lat="46.01241" lon="4.40425">
        <ele>622</ele>
        <time>2014-04-01T13:47:54Z</time>
      </trkpt>
      <trkpt lat="46.01251" lon="4.40453">
        <ele>622</ele>
        <time>2014-04-01T13:47:59Z</time>
      </trkpt>
      <trkpt lat="46.0125" lon="4.40493">
        <ele>618</ele>
        <time>2014-04-01T13:48:04Z</time>
      </trkpt>
      <trkpt lat="46.01254" lon="4.40532">
        <ele>616</ele>
        <time>2014-04-01T13:48:09Z</time>
      </trkpt>
      <trkpt lat="46.0126" lon="4.40559">
        <ele>616</ele>
        <time>2014-04-01T13:48:14Z</time>
      </trkpt>
      <trkpt lat="46.01275" lon="4.4059">
        <ele>618</ele>
        <time>2014-04-01T13:48:19Z</time>
      </trkpt>
      <trkpt lat="46.0129" lon="4.40619">
        <ele>621</ele>
        <time>2014-04-01T13:48:24Z</time>
      </trkpt>
      <trkpt lat="46.01307" lon="4.4065">
        <ele>624</ele>
        <time>2014-04-01T13:48:29Z</time>
      </trkpt>
      <trkpt lat="46.01305" lon="4.40682">
        <ele>624</ele>
        <time>2014-04-01T13:48:34Z</time>
      </trkpt>
      <trkpt lat="46.01292" lon="4.40711">
        <ele>621</ele>
        <time>2014-04-01T13:48:39Z</time>
      </trkpt>
      <trkpt lat="46.01276" lon="4.40737">
        <ele>618</ele>
        <time>2014-04-01T13:48:44Z</time>
      </trkpt>
      <trkpt lat="46.01257" lon="4.40767">
        <ele>615</ele>
        <time>2014-04-01T13:48:49Z</time>
      </trkpt>
      <trkpt lat="46.01236" lon="4.40799">
        <ele>612</ele>
        <time>2014-04-01T13:48:54Z</time>
      </trkpt>
      <trkpt lat="46.01215" lon="4.4082">
        <ele>609</ele>
        <time>2014-04-01T13:48:59Z</time>
      </trkpt>
      <trkpt lat="46.01189" lon="4.40838">
        <ele>604</ele>
        <time>2014-04-01T13:49:04Z</time>
      </trkpt>
      <trkpt lat="46.01168" lon="4.40851">
        <ele>600</ele>
        <time>2014-04-01T13:49:09Z</time>
      </trkpt>
      <trkpt lat="46.01157" lon="4.40874">
        <ele>599</ele>
        <time>2014-04-01T13:49:14Z</time>
      </trkpt>
      <trkpt lat="46.01159" lon="4.40903">
        <ele>600</ele>
        <time>2014-04-01T13:49:19Z</time>
      </trkpt>
      <trkpt lat="46.01168" lon="4.40932">
        <ele>600</ele>
        <time>2014-04-01T13:49:24Z</time>
      </trkpt>
      <trkpt lat="46.01175" lon="4.40966">
        <ele>600</ele>
        <time>2014-04-01T13:49:29Z</time>
      </trkpt>
      <trkpt lat="46.01183" lon="4.40994">
        <ele>600</ele>
        <time>2014-04-01T13:49:34Z</time>
      </trkpt>
      <trkpt lat="46.01188" lon="4.41005">
        <ele>600</ele>
        <time>2014-04-01T13:49:39Z</time>
      </trkpt>
      <trkpt lat="46.01197" lon="4.41021">
        <ele>600</ele>
        <time>2014-04-01T13:49:59Z</time>
      </trkpt>
      <trkpt lat="46.01187" lon="4.41032">
        <ele>599</ele>
        <time>2014-04-01T13:50:04Z</time>
      </trkpt>
      <trkpt lat="46.0118" lon="4.41039">
        <ele>600</ele>
        <time>2014-04-01T13:50:09Z</time>
      </trkpt>
      <trkpt lat="46.0117" lon="4.41035">
        <ele>599</ele>
        <time>2014-04-01T13:50:14Z</time>
      </trkpt>
      <trkpt lat="46.01152" lon="4.41029">
        <ele>598</ele>
        <time>2014-04-01T13:50:19Z</time>
      </trkpt>
      <trkpt lat="46.01123" lon="4.41023">
        <ele>597</ele>
        <time>2014-04-01T13:50:24Z</time>
      </trkpt>
      <trkpt lat="46.01092" lon="4.4102">
        <ele>598</ele>
        <time>2014-04-01T13:50:29Z</time>
      </trkpt>
      <trkpt lat="46.01078" lon="4.41006">
        <ele>597</ele>
        <time>2014-04-01T13:50:33Z</time>
      </trkpt>
      <trkpt lat="46.01074" lon="4.40974">
        <ele>594</ele>
        <time>2014-04-01T13:50:39Z</time>
      </trkpt>
      <trkpt lat="46.01074" lon="4.40957">
        <ele>593</ele>
        <time>2014-04-01T13:50:44Z</time>
      </trkpt>
      <trkpt lat="46.01075" lon="4.40948">
        <ele>593</ele>
        <time>2014-04-01T13:50:55Z</time>
      </trkpt>
      <trkpt lat="46.01082" lon="4.40917">
        <ele>592</ele>
        <time>2014-04-01T13:51:00Z</time>
      </trkpt>
      <trkpt lat="46.01078" lon="4.40877">
        <ele>590</ele>
        <time>2014-04-01T13:51:05Z</time>
      </trkpt>
      <trkpt lat="46.01056" lon="4.4083">
        <ele>588</ele>
        <time>2014-04-01T13:51:10Z</time>
      </trkpt>
      <trkpt lat="46.01043" lon="4.40791">
        <ele>586</ele>
        <time>2014-04-01T13:51:15Z</time>
      </trkpt>
      <trkpt lat="46.01037" lon="4.40759">
        <ele>583</ele>
        <time>2014-04-01T13:51:20Z</time>
      </trkpt>
      <trkpt lat="46.01036" lon="4.4073">
        <ele>582</ele>
        <time>2014-04-01T13:51:25Z</time>
      </trkpt>
      <trkpt lat="46.01031" lon="4.40703">
        <ele>581</ele>
        <time>2014-04-01T13:51:30Z</time>
      </trkpt>
      <trkpt lat="46.01024" lon="4.40687">
        <ele>580</ele>
        <time>2014-04-01T13:51:35Z</time>
      </trkpt>
      <trkpt lat="46.01014" lon="4.40674">
        <ele>581</ele>
        <time>2014-04-01T13:51:40Z</time>
      </trkpt>
      <trkpt lat="46.01006" lon="4.40662">
        <ele>581</ele>
        <time>2014-04-01T13:51:45Z</time>
      </trkpt>
      <trkpt lat="46.00997" lon="4.40651">
        <ele>583</ele>
        <time>2014-04-01T13:51:50Z</time>
      </trkpt>
      <trkpt lat="46.00986" lon="4.4064">
        <ele>585</ele>
        <time>2014-04-01T13:51:55Z</time>
      </trkpt>
      <trkpt lat="46.00972" lon="4.40623">
        <ele>588</ele>
        <time>2014-04-01T13:52:00Z</time>
      </trkpt>
      <trkpt lat="46.00958" lon="4.40613">
        <ele>591</ele>
        <time>2014-04-01T13:52:05Z</time>
      </trkpt>
      <trkpt lat="46.00944" lon="4.40603">
        <ele>593</ele>
        <time>2014-04-01T13:52:10Z</time>
      </trkpt>
      <trkpt lat="46.00932" lon="4.4059">
        <ele>595</ele>
        <time>2014-04-01T13:52:15Z</time>
      </trkpt>
      <trkpt lat="46.00919" lon="4.40576">
        <ele>597</ele>
        <time>2014-04-01T13:52:20Z</time>
      </trkpt>
      <trkpt lat="46.00906" lon="4.40563">
        <ele>598</ele>
        <time>2014-04-01T13:52:25Z</time>
      </trkpt>
      <trkpt lat="46.00892" lon="4.4055">
        <ele>599</ele>
        <time>2014-04-01T13:52:30Z</time>
      </trkpt>
      <trkpt lat="46.0088" lon="4.40538">
        <ele>600</ele>
        <time>2014-04-01T13:52:35Z</time>
      </trkpt>
      <trkpt lat="46.00866" lon="4.40526">
        <ele>600</ele>
        <time>2014-04-01T13:52:40Z</time>
      </trkpt>
      <trkpt lat="46.00853" lon="4.40513">
        <ele>600</ele>
        <time>2014-04-01T13:52:45Z</time>
      </trkpt>
      <trkpt lat="46.0084" lon="4.40502">
        <ele>600</ele>
        <time>2014-04-01T13:52:50Z</time>
      </trkpt>
      <trkpt lat="46.00826" lon="4.4049">
        <ele>599</ele>
        <time>2014-04-01T13:52:55Z</time>
      </trkpt>
      <trkpt lat="46.00807" lon="4.40476">
        <ele>598</ele>
        <time>2014-04-01T13:53:00Z</time>
      </trkpt>
      <trkpt lat="46.00791" lon="4.40467">
        <ele>597</ele>
        <time>2014-04-01T13:53:05Z</time>
      </trkpt>
      <trkpt lat="46.00773" lon="4.4046">
        <ele>596</ele>
        <time>2014-04-01T13:53:10Z</time>
      </trkpt>
      <trkpt lat="46.00752" lon="4.40459">
        <ele>595</ele>
        <time>2014-04-01T13:53:15Z</time>
      </trkpt>
      <trkpt lat="46.00732" lon="4.4046">
        <ele>595</ele>
        <time>2014-04-01T13:53:20Z</time>
      </trkpt>
      <trkpt lat="46.00716" lon="4.40465">
        <ele>596</ele>
        <time>2014-04-01T13:53:25Z</time>
      </trkpt>
      <trkpt lat="46.007" lon="4.40477">
        <ele>598</ele>
        <time>2014-04-01T13:53:30Z</time>
      </trkpt>
      <trkpt lat="46.00694" lon="4.40481">
        <ele>599</ele>
        <time>2014-04-01T13:53:35Z</time>
      </trkpt>
      <trkpt lat="46.00683" lon="4.40484">
        <ele>599</ele>
        <time>2014-04-01T13:53:40Z</time>
      </trkpt>
      <trkpt lat="46.0067" lon="4.4049">
        <ele>600</ele>
        <time>2014-04-01T13:53:45Z</time>
      </trkpt>
      <trkpt lat="46.00655" lon="4.40497">
        <ele>600</ele>
        <time>2014-04-01T13:53:50Z</time>
      </trkpt>
      <trkpt lat="46.00634" lon="4.40503">
        <ele>599</ele>
        <time>2014-04-01T13:53:55Z</time>
      </trkpt>
      <trkpt lat="46.00597" lon="4.40509">
        <ele>598</ele>
        <time>2014-04-01T13:54:00Z</time>
      </trkpt>
      <trkpt lat="46.00561" lon="4.40511">
        <ele>600</ele>
        <time>2014-04-01T13:54:05Z</time>
      </trkpt>
      <trkpt lat="46.00542" lon="4.40483">
        <ele>598</ele>
        <time>2014-04-01T13:54:10Z</time>
      </trkpt>
      <trkpt lat="46.00545" lon="4.40438">
        <ele>595</ele>
        <time>2014-04-01T13:54:15Z</time>
      </trkpt>
      <trkpt lat="46.00549" lon="4.40392">
        <ele>592</ele>
        <time>2014-04-01T13:54:20Z</time>
      </trkpt>
      <trkpt lat="46.00549" lon="4.40341">
        <ele>588</ele>
        <time>2014-04-01T13:54:25Z</time>
      </trkpt>
      <trkpt lat="46.00547" lon="4.40291">
        <ele>586</ele>
        <time>2014-04-01T13:54:30Z</time>
      </trkpt>
      <trkpt lat="46.00541" lon="4.40245">
        <ele>583</ele>
        <time>2014-04-01T13:54:35Z</time>
      </trkpt>
      <trkpt lat="46.00533" lon="4.40203">
        <ele>580</ele>
        <time>2014-04-01T13:54:40Z</time>
      </trkpt>
      <trkpt lat="46.00521" lon="4.40169">
        <ele>578</ele>
        <time>2014-04-01T13:54:45Z</time>
      </trkpt>
      <trkpt lat="46.005" lon="4.40131">
        <ele>578</ele>
        <time>2014-04-01T13:54:50Z</time>
      </trkpt>
      <trkpt lat="46.00478" lon="4.40092">
        <ele>578</ele>
        <time>2014-04-01T13:54:55Z</time>
      </trkpt>
      <trkpt lat="46.00451" lon="4.40044">
        <ele>575</ele>
        <time>2014-04-01T13:55:00Z</time>
      </trkpt>
      <trkpt lat="46.00425" lon="4.40006">
        <ele>574</ele>
        <time>2014-04-01T13:55:05Z</time>
      </trkpt>
      <trkpt lat="46.00408" lon="4.39964">
        <ele>570</ele>
        <time>2014-04-01T13:55:10Z</time>
      </trkpt>
      <trkpt lat="46.00388" lon="4.39914">
        <ele>565</ele>
        <time>2014-04-01T13:55:15Z</time>
      </trkpt>
      <trkpt lat="46.00356" lon="4.39882">
        <ele>562</ele>
        <time>2014-04-01T13:55:20Z</time>
      </trkpt>
      <trkpt lat="46.00327" lon="4.39855">
        <ele>560</ele>
        <time>2014-04-01T13:55:25Z</time>
      </trkpt>
      <trkpt lat="46.00301" lon="4.39831">
        <ele>556</ele>
        <time>2014-04-01T13:55:30Z</time>
      </trkpt>
      <trkpt lat="46.00262" lon="4.39822">
        <ele>551</ele>
        <time>2014-04-01T13:55:35Z</time>
      </trkpt>
      <trkpt lat="46.00217" lon="4.39827">
        <ele>547</ele>
        <time>2014-04-01T13:55:40Z</time>
      </trkpt>
      <trkpt lat="46.00177" lon="4.39832">
        <ele>545</ele>
        <time>2014-04-01T13:55:45Z</time>
      </trkpt>
      <trkpt lat="46.00147" lon="4.39812">
        <ele>548</ele>
        <time>2014-04-01T13:55:50Z</time>
      </trkpt>
      <trkpt lat="46.00131" lon="4.39793">
        <ele>550</ele>
        <time>2014-04-01T13:55:55Z</time>
      </trkpt>
      <trkpt lat="46.00121" lon="4.39778">
        <ele>551</ele>
        <time>2014-04-01T13:56:00Z</time>
      </trkpt>
      <trkpt lat="46.00114" lon="4.39764">
        <ele>552</ele>
        <time>2014-04-01T13:56:05Z</time>
      </trkpt>
      <trkpt lat="46.00113" lon="4.39751">
        <ele>551</ele>
        <time>2014-04-01T13:56:10Z</time>
      </trkpt>
      <trkpt lat="46.00112" lon="4.39738">
        <ele>551</ele>
        <time>2014-04-01T13:56:15Z</time>
      </trkpt>
      <trkpt lat="46.00105" lon="4.39723">
        <ele>552</ele>
        <time>2014-04-01T13:56:20Z</time>
      </trkpt>
      <trkpt lat="46.00097" lon="4.39704">
        <ele>553</ele>
        <time>2014-04-01T13:56:25Z</time>
      </trkpt>
      <trkpt lat="46.00088" lon="4.39693">
        <ele>554</ele>
        <time>2014-04-01T13:56:30Z</time>
      </trkpt>
      <trkpt lat="46.00079" lon="4.39683">
        <ele>555</ele>
        <time>2014-04-01T13:56:35Z</time>
      </trkpt>
      <trkpt lat="46.00074" lon="4.39674">
        <ele>556</ele>
        <time>2014-04-01T13:56:40Z</time>
      </trkpt>
      <trkpt lat="46.00063" lon="4.3966">
        <ele>557</ele>
        <time>2014-04-01T13:56:51Z</time>
      </trkpt>
      <trkpt lat="46.00058" lon="4.39655">
        <ele>558</ele>
        <time>2014-04-01T13:56:56Z</time>
      </trkpt>
      <trkpt lat="46.00055" lon="4.39649">
        <ele>558</ele>
        <time>2014-04-01T13:57:01Z</time>
      </trkpt>
      <trkpt lat="46.00055" lon="4.39649">
        <ele>558</ele>
        <time>2014-04-01T13:57:18Z</time>
      </trkpt>
      <trkpt lat="46.00055" lon="4.39649">
        <ele>558</ele>
        <time>2014-04-01T13:57:33Z</time>
      </trkpt>
      <trkpt lat="46.00023" lon="4.39626">
        <ele>563</ele>
        <time>2014-04-01T13:57:39Z</time>
      </trkpt>
      <trkpt lat="46.00014" lon="4.39621">
        <ele>565</ele>
        <time>2014-04-01T13:57:47Z</time>
      </trkpt>
      <trkpt lat="46.00009" lon="4.39618">
        <ele>565</ele>
        <time>2014-04-01T13:57:52Z</time>
      </trkpt>
      <trkpt lat="46.00009" lon="4.39618">
        <ele>565</ele>
        <time>2014-04-01T13:58:18Z</time>
      </trkpt>
      <trkpt lat="45.99975" lon="4.39595">
        <ele>571</ele>
        <time>2014-04-01T13:58:27Z</time>
      </trkpt>
      <trkpt lat="45.99974" lon="4.39594">
        <ele>571</ele>
        <time>2014-04-01T13:58:48Z</time>
      </trkpt>
      <trkpt lat="45.99943" lon="4.39564">
        <ele>577</ele>
        <time>2014-04-01T13:59:00Z</time>
      </trkpt>
      <trkpt lat="45.99942" lon="4.39566">
        <ele>578</ele>
        <time>2014-04-01T13:59:18Z</time>
      </trkpt>
      <trkpt lat="45.99928" lon="4.39553">
        <ele>581</ele>
        <time>2014-04-01T13:59:21Z</time>
      </trkpt>
      <trkpt lat="45.99921" lon="4.39545">
        <ele>582</ele>
        <time>2014-04-01T13:59:26Z</time>
      </trkpt>
      <trkpt lat="45.99913" lon="4.39535">
        <ele>584</ele>
        <time>2014-04-01T13:59:31Z</time>
      </trkpt>
      <trkpt lat="45.99905" lon="4.39523">
        <ele>585</ele>
        <time>2014-04-01T13:59:35Z</time>
      </trkpt>
      <trkpt lat="45.99901" lon="4.39513">
        <ele>587</ele>
        <time>2014-04-01T13:59:40Z</time>
      </trkpt>
      <trkpt lat="45.999" lon="4.39504">
        <ele>587</ele>
        <time>2014-04-01T13:59:47Z</time>
      </trkpt>
      <trkpt lat="45.99898" lon="4.39498">
        <ele>588</ele>
        <time>2014-04-01T13:59:52Z</time>
      </trkpt>
      <trkpt lat="45.99887" lon="4.39478">
        <ele>592</ele>
        <time>2014-04-01T13:59:57Z</time>
      </trkpt>
      <trkpt lat="45.99875" lon="4.39457">
        <ele>596</ele>
        <time>2014-04-01T14:00:02Z</time>
      </trkpt>
      <trkpt lat="45.99871" lon="4.3943">
        <ele>596</ele>
        <time>2014-04-01T14:00:07Z</time>
      </trkpt>
      <trkpt lat="45.99873" lon="4.39405">
        <ele>593</ele>
        <time>2014-04-01T14:00:12Z</time>
      </trkpt>
      <trkpt lat="45.99881" lon="4.39377">
        <ele>588</ele>
        <time>2014-04-01T14:00:17Z</time>
      </trkpt>
      <trkpt lat="45.99885" lon="4.39345">
        <ele>584</ele>
        <time>2014-04-01T14:00:22Z</time>
      </trkpt>
      <trkpt lat="45.99881" lon="4.3932">
        <ele>583</ele>
        <time>2014-04-01T14:00:27Z</time>
      </trkpt>
      <trkpt lat="45.99873" lon="4.39293">
        <ele>581</ele>
        <time>2014-04-01T14:00:32Z</time>
      </trkpt>
      <trkpt lat="45.99861" lon="4.39263">
        <ele>579</ele>
        <time>2014-04-01T14:00:37Z</time>
      </trkpt>
      <trkpt lat="45.99839" lon="4.39231">
        <ele>579</ele>
        <time>2014-04-01T14:00:42Z</time>
      </trkpt>
      <trkpt lat="45.99807" lon="4.3919">
        <ele>580</ele>
        <time>2014-04-01T14:00:47Z</time>
      </trkpt>
      <trkpt lat="45.99774" lon="4.39146">
        <ele>577</ele>
        <time>2014-04-01T14:00:52Z</time>
      </trkpt>
      <trkpt lat="45.99743" lon="4.39104">
        <ele>575</ele>
        <time>2014-04-01T14:00:57Z</time>
      </trkpt>
      <trkpt lat="45.99694" lon="4.39078">
        <ele>580</ele>
        <time>2014-04-01T14:01:03Z</time>
      </trkpt>
      <trkpt lat="45.99671" lon="4.39034">
        <ele>578</ele>
        <time>2014-04-01T14:01:08Z</time>
      </trkpt>
      <trkpt lat="45.99647" lon="4.38966">
        <ele>574</ele>
        <time>2014-04-01T14:01:13Z</time>
      </trkpt>
      <trkpt lat="45.99625" lon="4.38893">
        <ele>569</ele>
        <time>2014-04-01T14:01:18Z</time>
      </trkpt>
      <trkpt lat="45.99608" lon="4.38835">
        <ele>566</ele>
        <time>2014-04-01T14:01:23Z</time>
      </trkpt>
      <trkpt lat="45.99586" lon="4.38789">
        <ele>564</ele>
        <time>2014-04-01T14:01:28Z</time>
      </trkpt>
      <trkpt lat="45.99567" lon="4.38741">
        <ele>560</ele>
        <time>2014-04-01T14:01:33Z</time>
      </trkpt>
      <trkpt lat="45.99546" lon="4.38669">
        <ele>554</ele>
        <time>2014-04-01T14:01:38Z</time>
      </trkpt>
      <trkpt lat="45.99541" lon="4.38602">
        <ele>546</ele>
        <time>2014-04-01T14:01:43Z</time>
      </trkpt>
      <trkpt lat="45.99526" lon="4.3855">
        <ele>545</ele>
        <time>2014-04-01T14:01:48Z</time>
      </trkpt>
      <trkpt lat="45.99508" lon="4.38521">
        <ele>547</ele>
        <time>2014-04-01T14:01:53Z</time>
      </trkpt>
      <trkpt lat="45.99487" lon="4.38496">
        <ele>549</ele>
        <time>2014-04-01T14:01:58Z</time>
      </trkpt>
      <trkpt lat="45.99467" lon="4.38473">
        <ele>549</ele>
        <time>2014-04-01T14:02:03Z</time>
      </trkpt>
      <trkpt lat="45.99448" lon="4.38456">
        <ele>550</ele>
        <time>2014-04-01T14:02:08Z</time>
      </trkpt>
      <trkpt lat="45.99425" lon="4.38439">
        <ele>551</ele>
        <time>2014-04-01T14:02:13Z</time>
      </trkpt>
      <trkpt lat="45.99401" lon="4.38424">
        <ele>551</ele>
        <time>2014-04-01T14:02:18Z</time>
      </trkpt>
      <trkpt lat="45.99374" lon="4.38409">
        <ele>551</ele>
        <time>2014-04-01T14:02:23Z</time>
      </trkpt>
      <trkpt lat="45.9935" lon="4.38397">
        <ele>552</ele>
        <time>2014-04-01T14:02:28Z</time>
      </trkpt>
      <trkpt lat="45.9933" lon="4.38388">
        <ele>553</ele>
        <time>2014-04-01T14:02:33Z</time>
      </trkpt>
      <trkpt lat="45.99316" lon="4.38381">
        <ele>553</ele>
        <time>2014-04-01T14:02:38Z</time>
      </trkpt>
      <trkpt lat="45.99306" lon="4.38376">
        <ele>554</ele>
        <time>2014-04-01T14:02:43Z</time>
      </trkpt>
      <trkpt lat="45.99297" lon="4.38371">
        <ele>554</ele>
        <time>2014-04-01T14:02:48Z</time>
      </trkpt>
      <trkpt lat="45.99285" lon="4.38363">
        <ele>555</ele>
        <time>2014-04-01T14:02:53Z</time>
      </trkpt>
      <trkpt lat="45.99276" lon="4.38357">
        <ele>555</ele>
        <time>2014-04-01T14:02:58Z</time>
      </trkpt>
      <trkpt lat="45.99266" lon="4.38348">
        <ele>555</ele>
        <time>2014-04-01T14:03:03Z</time>
      </trkpt>
      <trkpt lat="45.99256" lon="4.38341">
        <ele>556</ele>
        <time>2014-04-01T14:03:08Z</time>
      </trkpt>
      <trkpt lat="45.99246" lon="4.38333">
        <ele>556</ele>
        <time>2014-04-01T14:03:13Z</time>
      </trkpt>
      <trkpt lat="45.99235" lon="4.38325">
        <ele>557</ele>
        <time>2014-04-01T14:03:18Z</time>
      </trkpt>
      <trkpt lat="45.99223" lon="4.38316">
        <ele>558</ele>
        <time>2014-04-01T14:03:23Z</time>
      </trkpt>
      <trkpt lat="45.99213" lon="4.38311">
        <ele>558</ele>
        <time>2014-04-01T14:03:28Z</time>
      </trkpt>
      <trkpt lat="45.992" lon="4.38312">
        <ele>558</ele>
        <time>2014-04-01T14:03:33Z</time>
      </trkpt>
      <trkpt lat="45.99188" lon="4.38324">
        <ele>558</ele>
        <time>2014-04-01T14:03:38Z</time>
      </trkpt>
      <trkpt lat="45.9918" lon="4.3834">
        <ele>558</ele>
        <time>2014-04-01T14:03:43Z</time>
      </trkpt>
      <trkpt lat="45.99171" lon="4.38357">
        <ele>559</ele>
        <time>2014-04-01T14:03:48Z</time>
      </trkpt>
      <trkpt lat="45.99162" lon="4.38374">
        <ele>560</ele>
        <time>2014-04-01T14:03:53Z</time>
      </trkpt>
      <trkpt lat="45.99154" lon="4.38386">
        <ele>560</ele>
        <time>2014-04-01T14:03:58Z</time>
      </trkpt>
      <trkpt lat="45.99146" lon="4.38402">
        <ele>560</ele>
        <time>2014-04-01T14:04:03Z</time>
      </trkpt>
      <trkpt lat="45.99134" lon="4.38432">
        <ele>559</ele>
        <time>2014-04-01T14:04:08Z</time>
      </trkpt>
      <trkpt lat="45.9912" lon="4.38474">
        <ele>558</ele>
        <time>2014-04-01T14:04:13Z</time>
      </trkpt>
      <trkpt lat="45.99107" lon="4.38503">
        <ele>557</ele>
        <time>2014-04-01T14:04:18Z</time>
      </trkpt>
      <trkpt lat="45.99107" lon="4.3853">
        <ele>557</ele>
        <time>2014-04-01T14:04:23Z</time>
      </trkpt>
      <trkpt lat="45.99109" lon="4.38554">
        <ele>558</ele>
        <time>2014-04-01T14:04:28Z</time>
      </trkpt>
      <trkpt lat="45.99101" lon="4.38577">
        <ele>558</ele>
        <time>2014-04-01T14:04:33Z</time>
      </trkpt>
      <trkpt lat="45.99088" lon="4.38596">
        <ele>558</ele>
        <time>2014-04-01T14:04:38Z</time>
      </trkpt>
      <trkpt lat="45.99075" lon="4.38617">
        <ele>557</ele>
        <time>2014-04-01T14:04:43Z</time>
      </trkpt>
      <trkpt lat="45.99066" lon="4.38639">
        <ele>558</ele>
        <time>2014-04-01T14:04:48Z</time>
      </trkpt>
      <trkpt lat="45.9906" lon="4.38659">
        <ele>559</ele>
        <time>2014-04-01T14:04:53Z</time>
      </trkpt>
      <trkpt lat="45.99055" lon="4.38682">
        <ele>561</ele>
        <time>2014-04-01T14:04:58Z</time>
      </trkpt>
      <trkpt lat="45.99049" lon="4.38703">
        <ele>562</ele>
        <time>2014-04-01T14:05:03Z</time>
      </trkpt>
      <trkpt lat="45.99037" lon="4.38725">
        <ele>563</ele>
        <time>2014-04-01T14:05:08Z</time>
      </trkpt>
      <trkpt lat="45.9903" lon="4.38745">
        <ele>564</ele>
        <time>2014-04-01T14:05:13Z</time>
      </trkpt>
      <trkpt lat="45.99022" lon="4.38761">
        <ele>564</ele>
        <time>2014-04-01T14:05:18Z</time>
      </trkpt>
      <trkpt lat="45.99016" lon="4.38777">
        <ele>564</ele>
        <time>2014-04-01T14:05:23Z</time>
      </trkpt>
      <trkpt lat="45.99005" lon="4.38789">
        <ele>565</ele>
        <time>2014-04-01T14:05:28Z</time>
      </trkpt>
      <trkpt lat="45.98997" lon="4.38795">
        <ele>566</ele>
        <time>2014-04-01T14:05:33Z</time>
      </trkpt>
      <trkpt lat="45.98982" lon="4.38798">
        <ele>567</ele>
        <time>2014-04-01T14:05:38Z</time>
      </trkpt>
      <trkpt lat="45.98971" lon="4.38797">
        <ele>567</ele>
        <time>2014-04-01T14:05:43Z</time>
      </trkpt>
      <trkpt lat="45.98963" lon="4.38792">
        <ele>567</ele>
        <time>2014-04-01T14:05:48Z</time>
      </trkpt>
      <trkpt lat="45.98961" lon="4.38784">
        <ele>567</ele>
        <time>2014-04-01T14:05:53Z</time>
      </trkpt>
      <trkpt lat="45.98962" lon="4.38775">
        <ele>566</ele>
        <time>2014-04-01T14:05:58Z</time>
      </trkpt>
      <trkpt lat="45.98962" lon="4.38768">
        <ele>566</ele>
        <time>2014-04-01T14:06:03Z</time>
      </trkpt>
      <trkpt lat="45.98962" lon="4.38768">
        <ele>566</ele>
        <time>2014-04-01T14:06:18Z</time>
      </trkpt>
      <trkpt lat="45.98962" lon="4.38768">
        <ele>566</ele>
        <time>2014-04-01T14:06:33Z</time>
      </trkpt>
      <trkpt lat="45.98962" lon="4.38768">
        <ele>566</ele>
        <time>2014-04-01T14:06:48Z</time>
      </trkpt>
      <trkpt lat="45.98962" lon="4.38768">
        <ele>566</ele>
        <time>2014-04-01T14:07:03Z</time>
      </trkpt>
      <trkpt lat="45.98928" lon="4.3877">
        <ele>569</ele>
        <time>2014-04-01T14:07:07Z</time>
      </trkpt>
      <trkpt lat="45.98925" lon="4.3877">
        <ele>569</ele>
        <time>2014-04-01T14:07:33Z</time>
      </trkpt>
      <trkpt lat="45.98925" lon="4.3877">
        <ele>569</ele>
        <time>2014-04-01T14:07:48Z</time>
      </trkpt>
      <trkpt lat="45.9889" lon="4.38769">
        <ele>574</ele>
        <time>2014-04-01T14:07:55Z</time>
      </trkpt>
      <trkpt lat="45.98887" lon="4.38769">
        <ele>574</ele>
        <time>2014-04-01T14:08:18Z</time>
      </trkpt>
      <trkpt lat="45.98887" lon="4.38769">
        <ele>574</ele>
        <time>2014-04-01T14:08:33Z</time>
      </trkpt>
      <trkpt lat="45.98851" lon="4.38772">
        <ele>577</ele>
        <time>2014-04-01T14:08:37Z</time>
      </trkpt>
      <trkpt lat="45.98846" lon="4.38774">
        <ele>578</ele>
        <time>2014-04-01T14:08:42Z</time>
      </trkpt>
      <trkpt lat="45.98846" lon="4.38774">
        <ele>578</ele>
        <time>2014-04-01T14:09:03Z</time>
      </trkpt>
      <trkpt lat="45.98846" lon="4.38774">
        <ele>578</ele>
        <time>2014-04-01T14:09:18Z</time>
      </trkpt>
      <trkpt lat="45.98813" lon="4.38796">
        <ele>582</ele>
        <time>2014-04-01T14:09:20Z</time>
      </trkpt>
      <trkpt lat="45.98812" lon="4.388">
        <ele>582</ele>
        <time>2014-04-01T14:09:48Z</time>
      </trkpt>
      <trkpt lat="45.98804" lon="4.3885">
        <ele>586</ele>
        <time>2014-04-01T14:09:55Z</time>
      </trkpt>
      <trkpt lat="45.98804" lon="4.38865">
        <ele>586</ele>
        <time>2014-04-01T14:10:07Z</time>
      </trkpt>
      <trkpt lat="45.98801" lon="4.38882">
        <ele>587</ele>
        <time>2014-04-01T14:10:12Z</time>
      </trkpt>
      <trkpt lat="45.98798" lon="4.38898">
        <ele>587</ele>
        <time>2014-04-01T14:10:17Z</time>
      </trkpt>
      <trkpt lat="45.9879" lon="4.38914">
        <ele>588</ele>
        <time>2014-04-01T14:10:22Z</time>
      </trkpt>
      <trkpt lat="45.98779" lon="4.3893">
        <ele>589</ele>
        <time>2014-04-01T14:10:27Z</time>
      </trkpt>
      <trkpt lat="45.98772" lon="4.38942">
        <ele>590</ele>
        <time>2014-04-01T14:10:32Z</time>
      </trkpt>
      <trkpt lat="45.98765" lon="4.38951">
        <ele>591</ele>
        <time>2014-04-01T14:10:37Z</time>
      </trkpt>
      <trkpt lat="45.98761" lon="4.38959">
        <ele>591</ele>
        <time>2014-04-01T14:10:42Z</time>
      </trkpt>
      <trkpt lat="45.98757" lon="4.38968">
        <ele>592</ele>
        <time>2014-04-01T14:10:47Z</time>
      </trkpt>
      <trkpt lat="45.98753" lon="4.38975">
        <ele>593</ele>
        <time>2014-04-01T14:10:52Z</time>
      </trkpt>
      <trkpt lat="45.98749" lon="4.38986">
        <ele>593</ele>
        <time>2014-04-01T14:10:57Z</time>
      </trkpt>
      <trkpt lat="45.98743" lon="4.38995">
        <ele>594</ele>
        <time>2014-04-01T14:11:02Z</time>
      </trkpt>
      <trkpt lat="45.98739" lon="4.39005">
        <ele>595</ele>
        <time>2014-04-01T14:11:07Z</time>
      </trkpt>
      <trkpt lat="45.98731" lon="4.3901">
        <ele>595</ele>
        <time>2014-04-01T14:11:12Z</time>
      </trkpt>
      <trkpt lat="45.98719" lon="4.3901">
        <ele>595</ele>
        <time>2014-04-01T14:11:17Z</time>
      </trkpt>
      <trkpt lat="45.98706" lon="4.38999">
        <ele>594</ele>
        <time>2014-04-01T14:11:22Z</time>
      </trkpt>
      <trkpt lat="45.98684" lon="4.3901">
        <ele>595</ele>
        <time>2014-04-01T14:11:27Z</time>
      </trkpt>
      <trkpt lat="45.98663" lon="4.39033">
        <ele>596</ele>
        <time>2014-04-01T14:11:32Z</time>
      </trkpt>
      <trkpt lat="45.98634" lon="4.39052">
        <ele>594</ele>
        <time>2014-04-01T14:11:37Z</time>
      </trkpt>
      <trkpt lat="45.98603" lon="4.39075">
        <ele>593</ele>
        <time>2014-04-01T14:11:42Z</time>
      </trkpt>
      <trkpt lat="45.98574" lon="4.39099">
        <ele>593</ele>
        <time>2014-04-01T14:11:47Z</time>
      </trkpt>
      <trkpt lat="45.98549" lon="4.39119">
        <ele>593</ele>
        <time>2014-04-01T14:11:52Z</time>
      </trkpt>
      <trkpt lat="45.98529" lon="4.39139">
        <ele>593</ele>
        <time>2014-04-01T14:11:57Z</time>
      </trkpt>
      <trkpt lat="45.98514" lon="4.3916">
        <ele>594</ele>
        <time>2014-04-01T14:12:02Z</time>
      </trkpt>
      <trkpt lat="45.98503" lon="4.39164">
        <ele>593</ele>
        <time>2014-04-01T14:12:07Z</time>
      </trkpt>
      <trkpt lat="45.98492" lon="4.39164">
        <ele>592</ele>
        <time>2014-04-01T14:12:12Z</time>
      </trkpt>
      <trkpt lat="45.98481" lon="4.39167">
        <ele>591</ele>
        <time>2014-04-01T14:12:17Z</time>
      </trkpt>
      <trkpt lat="45.98473" lon="4.39172">
        <ele>591</ele>
        <time>2014-04-01T14:12:22Z</time>
      </trkpt>
      <trkpt lat="45.98466" lon="4.39178">
        <ele>591</ele>
        <time>2014-04-01T14:12:27Z</time>
      </trkpt>
      <trkpt lat="45.98466" lon="4.3918">
        <ele>591</ele>
        <time>2014-04-01T14:12:48Z</time>
      </trkpt>
      <trkpt lat="45.98466" lon="4.3918">
        <ele>591</ele>
        <time>2014-04-01T14:13:03Z</time>
      </trkpt>
      <trkpt lat="45.98466" lon="4.3918">
        <ele>591</ele>
        <time>2014-04-01T14:13:18Z</time>
      </trkpt>
      <trkpt lat="45.98466" lon="4.3918">
        <ele>591</ele>
        <time>2014-04-01T14:13:33Z</time>
      </trkpt>
      <trkpt lat="45.98466" lon="4.3918">
        <ele>591</ele>
        <time>2014-04-01T14:13:48Z</time>
      </trkpt>
      <trkpt lat="45.98466" lon="4.3918">
        <ele>591</ele>
        <time>2014-04-01T14:14:03Z</time>
      </trkpt>
      <trkpt lat="45.98466" lon="4.3918">
        <ele>591</ele>
        <time>2014-04-01T14:14:18Z</time>
      </trkpt>
      <trkpt lat="45.98466" lon="4.3918">
        <ele>591</ele>
        <time>2014-04-01T14:14:33Z</time>
      </trkpt>
      <trkpt lat="45.98466" lon="4.3918">
        <ele>591</ele>
        <time>2014-04-01T14:14:48Z</time>
      </trkpt>
      <trkpt lat="45.98466" lon="4.3918">
        <ele>591</ele>
        <time>2014-04-01T14:15:03Z</time>
      </trkpt>
      <trkpt lat="45.98466" lon="4.3918">
        <ele>591</ele>
        <time>2014-04-01T14:15:18Z</time>
      </trkpt>
      <trkpt lat="45.98466" lon="4.3918">
        <ele>591</ele>
        <time>2014-04-01T14:15:33Z</time>
      </trkpt>
      <trkpt lat="45.98466" lon="4.3918">
        <ele>591</ele>
        <time>2014-04-01T14:15:48Z</time>
      </trkpt>
      <trkpt lat="45.98466" lon="4.3918">
        <ele>591</ele>
        <time>2014-04-01T14:16:18Z</time>
      </trkpt>
      <trkpt lat="45.98466" lon="4.3918">
        <ele>591</ele>
        <time>2014-04-01T14:16:33Z</time>
      </trkpt>
      <trkpt lat="45.98466" lon="4.3918">
        <ele>591</ele>
        <time>2014-04-01T14:16:48Z</time>
      </trkpt>
    </trkseg>
  </trk>
</gpx>